<?xml version='1.0' encoding='UTF-8'?><gpx version="1.1" creator="JPX - https://github.com/jenetics/jpx" xmlns="http://www.topografix.com/GPX/1/1"><trk><trkseg><trkpt lat="45.594539377603496" lon="10.134730447198482"><ele>164.0</ele><time>2026-04-16T15:49:13Z</time></trkpt><trkpt lat="45.59455248221029" lon="10.134629505339996"><ele>164.0</ele><time>2026-04-16T15:49:24Z</time></trkpt><trkpt lat="45.594528903567195" lon="10.13452914580303"><ele>164.0</ele><time>2026-04-16T15:50:12Z</time></trkpt><trkpt lat="45.59452480983411" lon="10.134630978096547"><ele>164.0</ele><time>2026-04-16T15:50:31Z</time></trkpt><trkpt lat="45.59451413057756" lon="10.134738639775746"><ele>164.0</ele><time>2026-04-16T15:50:35Z</time></trkpt><trkpt lat="45.594511405104235" lon="10.134841441400729"><ele>164.0</ele><time>2026-04-16T15:50:38Z</time></trkpt><trkpt lat="45.594489645455454" lon="10.134963399612372"><ele>164.14285714285714</ele><time>2026-04-16T15:50:42Z</time></trkpt><trkpt lat="45.59447195006387" lon="10.135056235787573"><ele>164.28571428571428</ele><time>2026-04-16T15:50:45Z</time></trkpt><trkpt lat="45.59447864457904" lon="10.135175005870156"><ele>164.42857142857144</ele><time>2026-04-16T15:50:49Z</time></trkpt><trkpt lat="45.5945079637535" lon="10.135291732136647"><ele>164.57142857142856</ele><time>2026-04-16T15:50:53Z</time></trkpt><trkpt lat="45.59451180638959" lon="10.135385541858124"><ele>164.71428571428572</ele><time>2026-04-16T15:50:56Z</time></trkpt><trkpt lat="45.594532788664424" lon="10.135477623425544"><ele>164.85714285714286</ele><time>2026-04-16T15:50:59Z</time></trkpt><trkpt lat="45.59455440818441" lon="10.135573987679939"><ele>165.0</ele><time>2026-04-16T15:51:02Z</time></trkpt><trkpt lat="45.59456051165621" lon="10.135689032061268"><ele>164.85714285714286</ele><time>2026-04-16T15:51:05Z</time></trkpt><trkpt lat="45.594567557725824" lon="10.135788241804903"><ele>164.71428571428572</ele><time>2026-04-16T15:51:08Z</time></trkpt><trkpt lat="45.59458401264176" lon="10.135877768046257"><ele>164.57142857142856</ele><time>2026-04-16T15:51:11Z</time></trkpt><trkpt lat="45.594593681635075" lon="10.135977167537634"><ele>164.42857142857144</ele><time>2026-04-16T15:51:14Z</time></trkpt><trkpt lat="45.59459528091557" lon="10.136071866409896"><ele>164.28571428571428</ele><time>2026-04-16T15:51:17Z</time></trkpt><trkpt lat="45.59460920570406" lon="10.136178462917055"><ele>164.14285714285714</ele><time>2026-04-16T15:51:20Z</time></trkpt><trkpt lat="45.594624715797735" lon="10.136279286307337"><ele>164.0</ele><time>2026-04-16T15:51:23Z</time></trkpt><trkpt lat="45.59463900826952" lon="10.136382540256555"><ele>163.99999999999997</ele><time>2026-04-16T15:51:26Z</time></trkpt><trkpt lat="45.594650191720135" lon="10.136482369827585"><ele>164.0</ele><time>2026-04-16T15:51:29Z</time></trkpt><trkpt lat="45.594673273092596" lon="10.13657772072909"><ele>164.0</ele><time>2026-04-16T15:51:32Z</time></trkpt><trkpt lat="45.5947225398462" lon="10.136644129323649"><ele>164.0</ele><time>2026-04-16T15:51:35Z</time></trkpt><trkpt lat="45.594795516238754" lon="10.136671990447313"><ele>164.0</ele><time>2026-04-16T15:51:38Z</time></trkpt><trkpt lat="45.59486432131783" lon="10.136678950589486"><ele>163.99999999999997</ele><time>2026-04-16T15:51:41.001Z</time></trkpt><trkpt lat="45.594932534068526" lon="10.136684946838345"><ele>164.0</ele><time>2026-04-16T15:51:44.001Z</time></trkpt><trkpt lat="45.59501759010818" lon="10.136694816052207"><ele>163.7142857142857</ele><time>2026-04-16T15:51:48.001Z</time></trkpt><trkpt lat="45.59508639169451" lon="10.136717878924822"><ele>163.42857142857142</ele><time>2026-04-16T15:51:51.001Z</time></trkpt><trkpt lat="45.595152454539615" lon="10.136714042266265"><ele>163.14285714285714</ele><time>2026-04-16T15:51:54.001Z</time></trkpt><trkpt lat="45.59522386593118" lon="10.136718337826288"><ele>162.85714285714283</ele><time>2026-04-16T15:51:57.001Z</time></trkpt><trkpt lat="45.59528299008262" lon="10.136778513300618"><ele>162.57142857142856</ele><time>2026-04-16T15:52:00.001Z</time></trkpt><trkpt lat="45.595275315249125" lon="10.136885553133483"><ele>162.28571428571428</ele><time>2026-04-16T15:52:03.001Z</time></trkpt><trkpt lat="45.59526609676172" lon="10.136992066787588"><ele>162.0</ele><time>2026-04-16T15:52:06.001Z</time></trkpt><trkpt lat="45.59526040960674" lon="10.13709501247139"><ele>162.0</ele><time>2026-04-16T15:52:09.001Z</time></trkpt><trkpt lat="45.59525350236972" lon="10.137185340015765"><ele>162.0</ele><time>2026-04-16T15:52:12.001Z</time></trkpt><trkpt lat="45.59523828812165" lon="10.137281421983937"><ele>162.0</ele><time>2026-04-16T15:52:15.001Z</time></trkpt><trkpt lat="45.595236290546715" lon="10.13738102907998"><ele>162.0</ele><time>2026-04-16T15:52:18.001Z</time></trkpt><trkpt lat="45.59521758002408" lon="10.137475081640005"><ele>162.0</ele><time>2026-04-16T15:52:21.001Z</time></trkpt><trkpt lat="45.59521149217442" lon="10.137588001761548"><ele>162.0</ele><time>2026-04-16T15:52:24.001Z</time></trkpt><trkpt lat="45.595211549614305" lon="10.137705018684178"><ele>162.0</ele><time>2026-04-16T15:52:27.001Z</time></trkpt><trkpt lat="45.59520827304188" lon="10.137804522553528"><ele>162.0</ele><time>2026-04-16T15:52:30.001Z</time></trkpt><trkpt lat="45.59521882488285" lon="10.137910268675423"><ele>162.0</ele><time>2026-04-16T15:52:35.001Z</time></trkpt><trkpt lat="45.59523542696403" lon="10.138037529793102"><ele>162.0</ele><time>2026-04-16T15:52:38.001Z</time></trkpt><trkpt lat="45.59523840940668" lon="10.138166795183233"><ele>162.0</ele><time>2026-04-16T15:52:41.001Z</time></trkpt><trkpt lat="45.59524539797302" lon="10.138287530269073"><ele>162.0</ele><time>2026-04-16T15:52:44.001Z</time></trkpt><trkpt lat="45.595273092183405" lon="10.13839203490554"><ele>162.0</ele><time>2026-04-16T15:52:47.001Z</time></trkpt><trkpt lat="45.59530259620183" lon="10.138472582355917"><ele>161.83333333333334</ele><time>2026-04-16T15:52:49.001Z</time></trkpt><trkpt lat="45.595329198387574" lon="10.138571008585716"><ele>161.66666666666666</ele><time>2026-04-16T15:52:52.001Z</time></trkpt><trkpt lat="45.59533908391782" lon="10.138677310869015"><ele>161.5</ele><time>2026-04-16T15:52:55.001Z</time></trkpt><trkpt lat="45.595362463691195" lon="10.138788012623028"><ele>161.33333333333331</ele><time>2026-04-16T15:52:58.001Z</time></trkpt><trkpt lat="45.59535943874301" lon="10.13889412898846"><ele>161.16666666666666</ele><time>2026-04-16T15:53:01.001Z</time></trkpt><trkpt lat="45.59537513163508" lon="10.138994555429386"><ele>161.0</ele><time>2026-04-16T15:53:04.001Z</time></trkpt><trkpt lat="45.59537897383271" lon="10.139104144753329"><ele>161.66666666666666</ele><time>2026-04-16T15:53:07.001Z</time></trkpt><trkpt lat="45.59539025541263" lon="10.139230662097829"><ele>162.33333333333331</ele><time>2026-04-16T15:53:10.001Z</time></trkpt><trkpt lat="45.59539642153314" lon="10.139348700637257"><ele>163.0</ele><time>2026-04-16T15:53:13.001Z</time></trkpt><trkpt lat="45.59539186792985" lon="10.139455976184419"><ele>163.66666666666666</ele><time>2026-04-16T15:53:16.001Z</time></trkpt><trkpt lat="45.595407143013254" lon="10.139563934351223"><ele>164.33333333333334</ele><time>2026-04-16T15:53:19.001Z</time></trkpt><trkpt lat="45.59541586952027" lon="10.13966929267422"><ele>165.0</ele><time>2026-04-16T15:53:22.001Z</time></trkpt><trkpt lat="45.59541496234728" lon="10.139764053434131"><ele>165.00000000000003</ele><time>2026-04-16T15:53:25.001Z</time></trkpt><trkpt lat="45.59535742956344" lon="10.13983078742667"><ele>165.0</ele><time>2026-04-16T15:53:27.001Z</time></trkpt><trkpt lat="45.595326105347894" lon="10.139922529370267"><ele>165.0</ele><time>2026-04-16T15:53:30.001Z</time></trkpt><trkpt lat="45.59535035166637" lon="10.140017357881494"><ele>165.0</ele><time>2026-04-16T15:53:33.001Z</time></trkpt><trkpt lat="45.59534068237391" lon="10.140133913153571"><ele>165.0</ele><time>2026-04-16T15:53:36.001Z</time></trkpt><trkpt lat="45.59535282464719" lon="10.14022602598772"><ele>165.00000000000003</ele><time>2026-04-16T15:53:39.001Z</time></trkpt><trkpt lat="45.595352912734704" lon="10.140331509687655"><ele>165.0</ele><time>2026-04-16T15:53:42.001Z</time></trkpt><trkpt lat="45.595365536987956" lon="10.14043812925741"><ele>164.83333333333334</ele><time>2026-04-16T15:53:45.001Z</time></trkpt><trkpt lat="45.595377882349204" lon="10.140542734999293"><ele>164.66666666666666</ele><time>2026-04-16T15:53:48.001Z</time></trkpt><trkpt lat="45.59540251055373" lon="10.140636264891851"><ele>164.5</ele><time>2026-04-16T15:53:51.001Z</time></trkpt><trkpt lat="45.59543021748149" lon="10.14076070635076"><ele>164.33333333333331</ele><time>2026-04-16T15:53:55.001Z</time></trkpt><trkpt lat="45.59544441955981" lon="10.140854314680553"><ele>164.16666666666666</ele><time>2026-04-16T15:53:58.001Z</time></trkpt><trkpt lat="45.59546012358658" lon="10.140957590620948"><ele>164.0</ele><time>2026-04-16T15:54:01.001Z</time></trkpt><trkpt lat="45.595486296095956" lon="10.141060901436054"><ele>164.28571428571428</ele><time>2026-04-16T15:54:04.001Z</time></trkpt><trkpt lat="45.59551864971826" lon="10.14115725292903"><ele>164.57142857142856</ele><time>2026-04-16T15:54:07.001Z</time></trkpt><trkpt lat="45.59554786100652" lon="10.141243284592996"><ele>164.85714285714283</ele><time>2026-04-16T15:54:10.001Z</time></trkpt><trkpt lat="45.5955807624497" lon="10.141338117161691"><ele>165.14285714285714</ele><time>2026-04-16T15:54:13.001Z</time></trkpt><trkpt lat="45.595609099427634" lon="10.141435901289148"><ele>165.42857142857144</ele><time>2026-04-16T15:54:16.001Z</time></trkpt><trkpt lat="45.595628739646706" lon="10.141526352739932"><ele>165.7142857142857</ele><time>2026-04-16T15:54:19.001Z</time></trkpt><trkpt lat="45.59565594463355" lon="10.141614120920552"><ele>166.0</ele><time>2026-04-16T15:54:22.001Z</time></trkpt><trkpt lat="45.59567745180849" lon="10.141725601891606"><ele>166.14285714285714</ele><time>2026-04-16T15:54:25.001Z</time></trkpt><trkpt lat="45.59569772990969" lon="10.1418325479202"><ele>166.2857142857143</ele><time>2026-04-16T15:54:28.001Z</time></trkpt><trkpt lat="45.59571154258929" lon="10.141939482848136"><ele>166.42857142857144</ele><time>2026-04-16T15:54:31.001Z</time></trkpt><trkpt lat="45.59572338134984" lon="10.142039426522077"><ele>166.57142857142856</ele><time>2026-04-16T15:54:34.001Z</time></trkpt><trkpt lat="45.59573023766114" lon="10.142138538439596"><ele>166.71428571428572</ele><time>2026-04-16T15:54:37.001Z</time></trkpt><trkpt lat="45.5957309228844" lon="10.142248499758706"><ele>166.85714285714286</ele><time>2026-04-16T15:54:40.001Z</time></trkpt><trkpt lat="45.59572351389679" lon="10.142348550731263"><ele>167.0</ele><time>2026-04-16T15:54:43.001Z</time></trkpt><trkpt lat="45.595709783677925" lon="10.142444848660364"><ele>167.28571428571428</ele><time>2026-04-16T15:54:46.001Z</time></trkpt><trkpt lat="45.59568919332799" lon="10.142538727686416"><ele>167.57142857142858</ele><time>2026-04-16T15:54:49.001Z</time></trkpt><trkpt lat="45.59566314415368" lon="10.142626481855846"><ele>167.85714285714286</ele><time>2026-04-16T15:54:52.002Z</time></trkpt><trkpt lat="45.59569864440226" lon="10.142724254478042"><ele>168.14285714285714</ele><time>2026-04-16T15:54:56.002Z</time></trkpt><trkpt lat="45.59569302321047" lon="10.142837210616934"><ele>168.42857142857142</ele><time>2026-04-16T15:54:59.002Z</time></trkpt><trkpt lat="45.59566957047824" lon="10.142922519122328"><ele>168.71428571428572</ele><time>2026-04-16T15:55:02.002Z</time></trkpt><trkpt lat="45.5956726951119" lon="10.143021049158051"><ele>169.0</ele><time>2026-04-16T15:55:04.002Z</time></trkpt><trkpt lat="45.59566797059035" lon="10.143142663304427"><ele>169.85714285714286</ele><time>2026-04-16T15:55:07.002Z</time></trkpt><trkpt lat="45.59564811498891" lon="10.143234972122036"><ele>170.71428571428572</ele><time>2026-04-16T15:55:10.002Z</time></trkpt><trkpt lat="45.59560845264639" lon="10.14331712909981"><ele>171.57142857142856</ele><time>2026-04-16T15:55:13.002Z</time></trkpt><trkpt lat="45.595573591753805" lon="10.143408534900678"><ele>172.42857142857144</ele><time>2026-04-16T15:55:16.002Z</time></trkpt><trkpt lat="45.59553776358006" lon="10.143497002287864"><ele>173.28571428571428</ele><time>2026-04-16T15:55:19.002Z</time></trkpt><trkpt lat="45.59550736190301" lon="10.143590237851601"><ele>174.14285714285714</ele><time>2026-04-16T15:55:22.002Z</time></trkpt><trkpt lat="45.59548002551389" lon="10.14369338135363"><ele>175.0</ele><time>2026-04-16T15:55:25.002Z</time></trkpt><trkpt lat="45.59546637280466" lon="10.14379151722022"><ele>175.0</ele><time>2026-04-16T15:55:28.002Z</time></trkpt><trkpt lat="45.595433044161375" lon="10.143894760999245"><ele>175.0</ele><time>2026-04-16T15:55:31.002Z</time></trkpt><trkpt lat="45.595417990300085" lon="10.14399885294619"><ele>175.0</ele><time>2026-04-16T15:55:34.002Z</time></trkpt><trkpt lat="45.59540120821188" lon="10.144098293564655"><ele>175.0</ele><time>2026-04-16T15:55:37.002Z</time></trkpt><trkpt lat="45.59539110391915" lon="10.144196602565913"><ele>175.0</ele><time>2026-04-16T15:55:40.002Z</time></trkpt><trkpt lat="45.59536171755348" lon="10.144292934095102"><ele>175.0</ele><time>2026-04-16T15:55:43.002Z</time></trkpt><trkpt lat="45.595340807489436" lon="10.144412057667052"><ele>174.5</ele><time>2026-04-16T15:55:47.002Z</time></trkpt><trkpt lat="45.59532339993994" lon="10.144504054486012"><ele>174.0</ele><time>2026-04-16T15:55:50.002Z</time></trkpt><trkpt lat="45.595306466851895" lon="10.144621402584074"><ele>173.5</ele><time>2026-04-16T15:55:54.002Z</time></trkpt><trkpt lat="45.5952842598535" lon="10.144734500241205"><ele>173.0</ele><time>2026-04-16T15:55:57.002Z</time></trkpt><trkpt lat="45.59524719044821" lon="10.144834960345767"><ele>172.5</ele><time>2026-04-16T15:56:00.002Z</time></trkpt><trkpt lat="45.59522714458379" lon="10.144944977125057"><ele>172.0</ele><time>2026-04-16T15:56:03.002Z</time></trkpt><trkpt lat="45.59522127497897" lon="10.145048818451379"><ele>172.0</ele><time>2026-04-16T15:56:06.002Z</time></trkpt><trkpt lat="45.595206075908926" lon="10.14516178075487"><ele>172.0</ele><time>2026-04-16T15:56:09.002Z</time></trkpt><trkpt lat="45.59519635295558" lon="10.145275412596275"><ele>172.0</ele><time>2026-04-16T15:56:12.002Z</time></trkpt><trkpt lat="45.59518936644843" lon="10.145395883994073"><ele>172.0</ele><time>2026-04-16T15:56:15.002Z</time></trkpt><trkpt lat="45.595194900740324" lon="10.14550150420216"><ele>172.0</ele><time>2026-04-16T15:56:18.002Z</time></trkpt><trkpt lat="45.59519607083454" lon="10.145605481222265"><ele>172.0</ele><time>2026-04-16T15:56:21.002Z</time></trkpt><trkpt lat="45.595192355077444" lon="10.145708092369015"><ele>172.57142857142858</ele><time>2026-04-16T15:56:24.002Z</time></trkpt><trkpt lat="45.59520146208307" lon="10.14581741822626"><ele>173.14285714285714</ele><time>2026-04-16T15:56:27.002Z</time></trkpt><trkpt lat="45.595199084456574" lon="10.14591419005424"><ele>173.71428571428572</ele><time>2026-04-16T15:56:30.002Z</time></trkpt><trkpt lat="45.59520879641704" lon="10.146012719821604"><ele>174.28571428571428</ele><time>2026-04-16T15:56:33.002Z</time></trkpt><trkpt lat="45.59521248644778" lon="10.146112925993078"><ele>174.85714285714286</ele><time>2026-04-16T15:56:36.002Z</time></trkpt><trkpt lat="45.59521593665308" lon="10.146213238222732"><ele>175.42857142857144</ele><time>2026-04-16T15:56:39.002Z</time></trkpt><trkpt lat="45.595221098021206" lon="10.146311059096595"><ele>176.0</ele><time>2026-04-16T15:56:42.002Z</time></trkpt><trkpt lat="45.59523083898344" lon="10.146412185457102"><ele>176.0</ele><time>2026-04-16T15:56:45.002Z</time></trkpt><trkpt lat="45.59523464426475" lon="10.14650764056376"><ele>176.0</ele><time>2026-04-16T15:56:48.002Z</time></trkpt><trkpt lat="45.59523175614887" lon="10.146602633676979"><ele>176.0</ele><time>2026-04-16T15:56:51.002Z</time></trkpt><trkpt lat="45.59523843596498" lon="10.146695200237039"><ele>176.0</ele><time>2026-04-16T15:56:54.002Z</time></trkpt><trkpt lat="45.595244694065414" lon="10.14679104816654"><ele>176.0</ele><time>2026-04-16T15:56:57.002Z</time></trkpt><trkpt lat="45.59524329329647" lon="10.146893222874251"><ele>176.0</ele><time>2026-04-16T15:57:00.002Z</time></trkpt><trkpt lat="45.59524874517908" lon="10.146988933722247"><ele>176.0</ele><time>2026-04-16T15:57:03.002Z</time></trkpt><trkpt lat="45.59525094278033" lon="10.14708826682225"><ele>176.85714285714286</ele><time>2026-04-16T15:57:06.002Z</time></trkpt><trkpt lat="45.59525718708424" lon="10.147180354257651"><ele>177.71428571428572</ele><time>2026-04-16T15:57:09.002Z</time></trkpt><trkpt lat="45.595249770543965" lon="10.147273463099827"><ele>178.57142857142856</ele><time>2026-04-16T15:57:12.002Z</time></trkpt><trkpt lat="45.59521310052415" lon="10.14735815408851"><ele>179.42857142857144</ele><time>2026-04-16T15:57:15.002Z</time></trkpt><trkpt lat="45.59513270592398" lon="10.147347733187567"><ele>180.28571428571428</ele><time>2026-04-16T15:57:18.002Z</time></trkpt><trkpt lat="45.59506102214732" lon="10.147336738486056"><ele>181.14285714285714</ele><time>2026-04-16T15:57:21.002Z</time></trkpt><trkpt lat="45.59499709051743" lon="10.147343674795708"><ele>182.0</ele><time>2026-04-16T15:57:24.002Z</time></trkpt><trkpt lat="45.594918645018545" lon="10.147328933095947"><ele>182.0</ele><time>2026-04-16T15:57:27.002Z</time></trkpt><trkpt lat="45.594838608411195" lon="10.147333015194315"><ele>182.0</ele><time>2026-04-16T15:57:30.002Z</time></trkpt><trkpt lat="45.59475656899968" lon="10.14732671718693"><ele>182.0</ele><time>2026-04-16T15:57:33.002Z</time></trkpt><trkpt lat="45.59468524885466" lon="10.147321132641993"><ele>182.0</ele><time>2026-04-16T15:57:36.002Z</time></trkpt><trkpt lat="45.594611667823514" lon="10.14730916176636"><ele>182.0</ele><time>2026-04-16T15:57:39.002Z</time></trkpt><trkpt lat="45.59453691399357" lon="10.147301583364749"><ele>182.0</ele><time>2026-04-16T15:57:42.002Z</time></trkpt><trkpt lat="45.594467028033385" lon="10.14729610062203"><ele>183.28571428571428</ele><time>2026-04-16T15:57:45.002Z</time></trkpt><trkpt lat="45.59441598650032" lon="10.147369308883018"><ele>184.57142857142856</ele><time>2026-04-16T15:57:49.002Z</time></trkpt><trkpt lat="45.59440098232615" lon="10.147468040158321"><ele>185.85714285714286</ele><time>2026-04-16T15:57:52.002Z</time></trkpt><trkpt lat="45.594393968795444" lon="10.147567525176706"><ele>187.14285714285714</ele><time>2026-04-16T15:57:55.002Z</time></trkpt><trkpt lat="45.594386044338194" lon="10.147665503236942"><ele>188.42857142857142</ele><time>2026-04-16T15:57:58.002Z</time></trkpt><trkpt lat="45.594367805111816" lon="10.14776397766327"><ele>189.71428571428572</ele><time>2026-04-16T15:58:01.003Z</time></trkpt><trkpt lat="45.59436787083258" lon="10.147860263873973"><ele>191.0</ele><time>2026-04-16T15:58:04.003Z</time></trkpt><trkpt lat="45.594357764059396" lon="10.147949792279311"><ele>191.0</ele><time>2026-04-16T15:58:07.003Z</time></trkpt><trkpt lat="45.594349065806796" lon="10.14804519774349"><ele>191.0</ele><time>2026-04-16T15:58:10.003Z</time></trkpt><trkpt lat="45.5943498401692" lon="10.148148690073098"><ele>191.0</ele><time>2026-04-16T15:58:13.003Z</time></trkpt><trkpt lat="45.59434492318503" lon="10.148245727548838"><ele>191.0</ele><time>2026-04-16T15:58:16.003Z</time></trkpt><trkpt lat="45.59433687015035" lon="10.14834518330878"><ele>191.0</ele><time>2026-04-16T15:58:19.003Z</time></trkpt><trkpt lat="45.59432528022078" lon="10.148463902842122"><ele>191.0</ele><time>2026-04-16T15:58:23.003Z</time></trkpt><trkpt lat="45.5943187909735" lon="10.148580312882306"><ele>191.0</ele><time>2026-04-16T15:58:27.003Z</time></trkpt><trkpt lat="45.594302161953486" lon="10.14867417140581"><ele>190.2857142857143</ele><time>2026-04-16T15:58:30.003Z</time></trkpt><trkpt lat="45.59429310293215" lon="10.148772234258873"><ele>189.57142857142856</ele><time>2026-04-16T15:58:33.003Z</time></trkpt><trkpt lat="45.5942801620696" lon="10.148874639523601"><ele>188.85714285714286</ele><time>2026-04-16T15:58:36.003Z</time></trkpt><trkpt lat="45.59427266815075" lon="10.148969382079681"><ele>188.14285714285717</ele><time>2026-04-16T15:58:39.003Z</time></trkpt><trkpt lat="45.594255541145614" lon="10.149058986984038"><ele>187.42857142857144</ele><time>2026-04-16T15:58:42.003Z</time></trkpt><trkpt lat="45.59422651275731" lon="10.149140452149878"><ele>186.71428571428572</ele><time>2026-04-16T15:58:45.003Z</time></trkpt><trkpt lat="45.59418330953433" lon="10.149222966102245"><ele>186.0</ele><time>2026-04-16T15:58:48.003Z</time></trkpt><trkpt lat="45.59414500002454" lon="10.149299876892693"><ele>185.71428571428572</ele><time>2026-04-16T15:58:51.003Z</time></trkpt><trkpt lat="45.59409304105715" lon="10.149379694623226"><ele>185.42857142857144</ele><time>2026-04-16T15:58:54.003Z</time></trkpt><trkpt lat="45.59405820504333" lon="10.14946344793328"><ele>185.14285714285717</ele><time>2026-04-16T15:58:57.003Z</time></trkpt><trkpt lat="45.59401514634592" lon="10.149550165319859"><ele>184.85714285714286</ele><time>2026-04-16T15:59:00.003Z</time></trkpt><trkpt lat="45.593987585201816" lon="10.149635159719887"><ele>184.57142857142856</ele><time>2026-04-16T15:59:03.003Z</time></trkpt><trkpt lat="45.5939651405712" lon="10.149729887071668"><ele>184.2857142857143</ele><time>2026-04-16T15:59:06.003Z</time></trkpt><trkpt lat="45.59393289087423" lon="10.149813764662099"><ele>184.0</ele><time>2026-04-16T15:59:09.003Z</time></trkpt><trkpt lat="45.59391891685662" lon="10.149919400539519"><ele>183.71428571428572</ele><time>2026-04-16T15:59:12.003Z</time></trkpt><trkpt lat="45.59389090513195" lon="10.150014713682518"><ele>183.42857142857142</ele><time>2026-04-16T15:59:15.003Z</time></trkpt><trkpt lat="45.5938679998139" lon="10.150113191081882"><ele>183.14285714285714</ele><time>2026-04-16T15:59:18.003Z</time></trkpt><trkpt lat="45.593837920606504" lon="10.150207267026401"><ele>182.85714285714286</ele><time>2026-04-16T15:59:21.003Z</time></trkpt><trkpt lat="45.593824116311474" lon="10.150297277854207"><ele>182.57142857142856</ele><time>2026-04-16T15:59:24.003Z</time></trkpt><trkpt lat="45.59380015022853" lon="10.150401609568476"><ele>182.28571428571428</ele><time>2026-04-16T15:59:27.003Z</time></trkpt><trkpt lat="45.59378414881514" lon="10.150506707507814"><ele>182.0</ele><time>2026-04-16T15:59:30.003Z</time></trkpt><trkpt lat="45.59376504838669" lon="10.150604808848264"><ele>182.0</ele><time>2026-04-16T15:59:33.003Z</time></trkpt><trkpt lat="45.593742634644556" lon="10.150695406408445"><ele>182.0</ele><time>2026-04-16T15:59:36.003Z</time></trkpt><trkpt lat="45.59371000124644" lon="10.150811673567539"><ele>182.0</ele><time>2026-04-16T15:59:40.003Z</time></trkpt><trkpt lat="45.59368310680843" lon="10.150913183274895"><ele>182.0</ele><time>2026-04-16T15:59:43.003Z</time></trkpt><trkpt lat="45.59365065635929" lon="10.150993103668027"><ele>182.0</ele><time>2026-04-16T15:59:46.003Z</time></trkpt><trkpt lat="45.59362465925949" lon="10.151092724802368"><ele>182.0</ele><time>2026-04-16T15:59:49.003Z</time></trkpt><trkpt lat="45.59360442071292" lon="10.151183220729115"><ele>182.0</ele><time>2026-04-16T15:59:52.003Z</time></trkpt><trkpt lat="45.59359094906029" lon="10.151297881794642"><ele>181.71428571428572</ele><time>2026-04-16T15:59:55.003Z</time></trkpt><trkpt lat="45.5935756147702" lon="10.151398492864763"><ele>181.42857142857144</ele><time>2026-04-16T15:59:58.003Z</time></trkpt><trkpt lat="45.593560587078755" lon="10.151508392524779"><ele>181.14285714285714</ele><time>2026-04-16T16:00:01.003Z</time></trkpt><trkpt lat="45.59355387872349" lon="10.15162934141958"><ele>180.85714285714286</ele><time>2026-04-16T16:00:05.003Z</time></trkpt><trkpt lat="45.593496754802565" lon="10.151703995822986"><ele>180.57142857142858</ele><time>2026-04-16T16:00:08.003Z</time></trkpt><trkpt lat="45.59344657137788" lon="10.151758766676728"><ele>180.28571428571428</ele><time>2026-04-16T16:00:11.003Z</time></trkpt><trkpt lat="45.59342106821262" lon="10.151853154601797"><ele>180.0</ele><time>2026-04-16T16:00:14.003Z</time></trkpt><trkpt lat="45.59338374926522" lon="10.151945641742802"><ele>180.0</ele><time>2026-04-16T16:00:17.003Z</time></trkpt><trkpt lat="45.593362763734966" lon="10.152040875008849"><ele>180.0</ele><time>2026-04-16T16:00:20.003Z</time></trkpt><trkpt lat="45.593288586357126" lon="10.152090150991981"><ele>180.0</ele><time>2026-04-16T16:00:24.003Z</time></trkpt><trkpt lat="45.59320593131594" lon="10.15212023432335"><ele>180.0</ele><time>2026-04-16T16:00:27.003Z</time></trkpt><trkpt lat="45.59313363657374" lon="10.152196817372978"><ele>180.0</ele><time>2026-04-16T16:00:30.003Z</time></trkpt><trkpt lat="45.5930640953933" lon="10.152244076632142"><ele>180.0</ele><time>2026-04-16T16:00:33.003Z</time></trkpt><trkpt lat="45.59300386567052" lon="10.152305303092847"><ele>180.14285714285714</ele><time>2026-04-16T16:00:36.003Z</time></trkpt><trkpt lat="45.59300123250005" lon="10.152423715313143"><ele>180.2857142857143</ele><time>2026-04-16T16:00:39.003Z</time></trkpt><trkpt lat="45.592974265781066" lon="10.152521225003296"><ele>180.42857142857144</ele><time>2026-04-16T16:00:43.003Z</time></trkpt><trkpt lat="45.592918978373206" lon="10.152569666652004"><ele>180.57142857142856</ele><time>2026-04-16T16:00:47.003Z</time></trkpt><trkpt lat="45.59284768529876" lon="10.152594564835479"><ele>180.71428571428572</ele><time>2026-04-16T16:00:51.003Z</time></trkpt><trkpt lat="45.592765449600066" lon="10.15257692091"><ele>180.85714285714286</ele><time>2026-04-16T16:00:55.003Z</time></trkpt><trkpt lat="45.592697229918876" lon="10.152582465830555"><ele>181.0</ele><time>2026-04-16T16:00:58.003Z</time></trkpt><trkpt lat="45.592629235518245" lon="10.152564691933893"><ele>181.0</ele><time>2026-04-16T16:01:01.003Z</time></trkpt><trkpt lat="45.592557330765025" lon="10.152540320672632"><ele>181.0</ele><time>2026-04-16T16:01:04.003Z</time></trkpt><trkpt lat="45.59247491394474" lon="10.152522907567613"><ele>181.0</ele><time>2026-04-16T16:01:08.003Z</time></trkpt><trkpt lat="45.592400419605546" lon="10.152520492226838"><ele>181.0</ele><time>2026-04-16T16:01:11.003Z</time></trkpt><trkpt lat="45.59233086958448" lon="10.152528582162507"><ele>181.0</ele><time>2026-04-16T16:01:14.004Z</time></trkpt><trkpt lat="45.59227896296109" lon="10.152471274094843"><ele>181.0</ele><time>2026-04-16T16:01:17.004Z</time></trkpt><trkpt lat="45.59227544026899" lon="10.152362112460299"><ele>181.0</ele><time>2026-04-16T16:01:20.004Z</time></trkpt><trkpt lat="45.59223203907862" lon="10.15228877838935"><ele>182.0</ele><time>2026-04-16T16:01:23.004Z</time></trkpt><trkpt lat="45.59215105840695" lon="10.15226482458973"><ele>183.0</ele><time>2026-04-16T16:01:26.004Z</time></trkpt><trkpt lat="45.5920756460008" lon="10.152277659207309"><ele>184.0</ele><time>2026-04-16T16:01:29.004Z</time></trkpt><trkpt lat="45.59199669965528" lon="10.15225331240939"><ele>185.0</ele><time>2026-04-16T16:01:32.004Z</time></trkpt><trkpt lat="45.591935099153766" lon="10.152187677485689"><ele>186.0</ele><time>2026-04-16T16:01:35.004Z</time></trkpt><trkpt lat="45.59187128190068" lon="10.152149513028867"><ele>187.0</ele><time>2026-04-16T16:01:38.004Z</time></trkpt><trkpt lat="45.59178942883168" lon="10.152116529698276"><ele>187.0</ele><time>2026-04-16T16:01:41.004Z</time></trkpt><trkpt lat="45.59171618790105" lon="10.15209741709019"><ele>187.0</ele><time>2026-04-16T16:01:44.004Z</time></trkpt><trkpt lat="45.59166027848324" lon="10.152029277372504"><ele>187.0</ele><time>2026-04-16T16:01:47.004Z</time></trkpt><trkpt lat="45.59158579176444" lon="10.151971175529486"><ele>187.0</ele><time>2026-04-16T16:01:51.004Z</time></trkpt><trkpt lat="45.59151670669439" lon="10.151963959843934"><ele>187.0</ele><time>2026-04-16T16:01:54.004Z</time></trkpt><trkpt lat="45.59143678885957" lon="10.151947311796896"><ele>187.0</ele><time>2026-04-16T16:01:57.004Z</time></trkpt><trkpt lat="45.591351952844306" lon="10.1519691816468"><ele>187.0</ele><time>2026-04-16T16:02:00.004Z</time></trkpt><trkpt lat="45.59128026604239" lon="10.152002053334988"><ele>187.0</ele><time>2026-04-16T16:02:03.004Z</time></trkpt><trkpt lat="45.59120697527892" lon="10.151938883864377"><ele>187.0</ele><time>2026-04-16T16:02:06.004Z</time></trkpt><trkpt lat="45.591120398347144" lon="10.151913343420953"><ele>187.0</ele><time>2026-04-16T16:02:09.004Z</time></trkpt><trkpt lat="45.59104850725962" lon="10.151904331965982"><ele>187.0</ele><time>2026-04-16T16:02:12.004Z</time></trkpt><trkpt lat="45.59097676262958" lon="10.151922502028496"><ele>187.0</ele><time>2026-04-16T16:02:15.004Z</time></trkpt><trkpt lat="45.59089160337495" lon="10.151925333581646"><ele>186.5</ele><time>2026-04-16T16:02:19.004Z</time></trkpt><trkpt lat="45.59081550154741" lon="10.151921823199132"><ele>186.0</ele><time>2026-04-16T16:02:22.004Z</time></trkpt><trkpt lat="45.590742272831896" lon="10.151899710268726"><ele>185.5</ele><time>2026-04-16T16:02:25.004Z</time></trkpt><trkpt lat="45.59066299737714" lon="10.151877909915573"><ele>185.0</ele><time>2026-04-16T16:02:28.004Z</time></trkpt><trkpt lat="45.59059260438434" lon="10.151838704823833"><ele>184.5</ele><time>2026-04-16T16:02:31.004Z</time></trkpt><trkpt lat="45.59052080088914" lon="10.151800183911208"><ele>184.0</ele><time>2026-04-16T16:02:34.004Z</time></trkpt><trkpt lat="45.59044686585107" lon="10.151790671211435"><ele>184.0</ele><time>2026-04-16T16:02:37.004Z</time></trkpt><trkpt lat="45.59037487482577" lon="10.151747790271363"><ele>184.0</ele><time>2026-04-16T16:02:40.004Z</time></trkpt><trkpt lat="45.59030696118715" lon="10.151694833727882"><ele>184.0</ele><time>2026-04-16T16:02:43.004Z</time></trkpt><trkpt lat="45.590236765372154" lon="10.151646898066627"><ele>184.0</ele><time>2026-04-16T16:02:46.004Z</time></trkpt><trkpt lat="45.59017473630268" lon="10.15157873706408"><ele>184.0</ele><time>2026-04-16T16:02:49.004Z</time></trkpt><trkpt lat="45.590119292623356" lon="10.151504090262584"><ele>184.0</ele><time>2026-04-16T16:02:52.004Z</time></trkpt><trkpt lat="45.590065700648466" lon="10.151453417978301"><ele>183.66666666666669</ele><time>2026-04-16T16:02:55.004Z</time></trkpt><trkpt lat="45.590009627878416" lon="10.151380211386009"><ele>183.33333333333334</ele><time>2026-04-16T16:02:58.004Z</time></trkpt><trkpt lat="45.58995064298274" lon="10.151323996739439"><ele>183.0</ele><time>2026-04-16T16:03:01.004Z</time></trkpt><trkpt lat="45.58988815664001" lon="10.151245221518206"><ele>182.66666666666666</ele><time>2026-04-16T16:03:05.004Z</time></trkpt><trkpt lat="45.58984898700458" lon="10.15116971272292"><ele>182.33333333333331</ele><time>2026-04-16T16:03:08.004Z</time></trkpt><trkpt lat="45.589823384597445" lon="10.151049645978539"><ele>182.0</ele><time>2026-04-16T16:03:11.004Z</time></trkpt><trkpt lat="45.58978748608593" lon="10.150953125465522"><ele>182.0</ele><time>2026-04-16T16:03:14.004Z</time></trkpt><trkpt lat="45.58974375195168" lon="10.150863536526648"><ele>182.0</ele><time>2026-04-16T16:03:17.004Z</time></trkpt><trkpt lat="45.58969866692285" lon="10.150776701374989"><ele>182.0</ele><time>2026-04-16T16:03:20.004Z</time></trkpt><trkpt lat="45.58965359630448" lon="10.150692478853333"><ele>182.0</ele><time>2026-04-16T16:03:23.004Z</time></trkpt><trkpt lat="45.5896030079946" lon="10.15063244866139"><ele>182.0</ele><time>2026-04-16T16:03:26.004Z</time></trkpt><trkpt lat="45.58953936265262" lon="10.15059757494802"><ele>182.0</ele><time>2026-04-16T16:03:29.004Z</time></trkpt><trkpt lat="45.58946244331959" lon="10.150607805871697"><ele>182.0</ele><time>2026-04-16T16:03:32.004Z</time></trkpt><trkpt lat="45.58941000298351" lon="10.150697063883488"><ele>180.0</ele><time>2026-04-16T16:03:35.004Z</time></trkpt><trkpt lat="45.589390812507965" lon="10.150801126240783"><ele>178.0</ele><time>2026-04-16T16:03:38.004Z</time></trkpt><trkpt lat="45.58933833127912" lon="10.150884467291256"><ele>176.0</ele><time>2026-04-16T16:03:41.004Z</time></trkpt><trkpt lat="45.58928972544074" lon="10.150963314883805"><ele>174.0</ele><time>2026-04-16T16:03:44.004Z</time></trkpt><trkpt lat="45.58924595187111" lon="10.151037297584677"><ele>172.0</ele><time>2026-04-16T16:03:47.004Z</time></trkpt><trkpt lat="45.58920354263826" lon="10.151119701808922"><ele>170.0</ele><time>2026-04-16T16:03:51.004Z</time></trkpt><trkpt lat="45.589184507816505" lon="10.15121919169498"><ele>168.0</ele><time>2026-04-16T16:03:54.004Z</time></trkpt><trkpt lat="45.58914489481704" lon="10.151315223358672"><ele>168.0</ele><time>2026-04-16T16:03:57.004Z</time></trkpt><trkpt lat="45.58910762054133" lon="10.151425431163347"><ele>168.0</ele><time>2026-04-16T16:04:01.004Z</time></trkpt><trkpt lat="45.589077863095" lon="10.151513653202404"><ele>168.0</ele><time>2026-04-16T16:04:04.004Z</time></trkpt><trkpt lat="45.58904357631603" lon="10.151615668540574"><ele>168.0</ele><time>2026-04-16T16:04:07.004Z</time></trkpt><trkpt lat="45.58899338129035" lon="10.151687614473266"><ele>168.0</ele><time>2026-04-16T16:04:10.004Z</time></trkpt><trkpt lat="45.58890500486583" lon="10.151685659353038"><ele>168.0</ele><time>2026-04-16T16:04:13.004Z</time></trkpt><trkpt lat="45.58886637936588" lon="10.151760068808079"><ele>168.16666666666666</ele><time>2026-04-16T16:04:16.004Z</time></trkpt><trkpt lat="45.58878714224813" lon="10.151736696841795"><ele>168.33333333333334</ele><time>2026-04-16T16:04:19.004Z</time></trkpt><trkpt lat="45.588709737165104" lon="10.151713212129145"><ele>168.5</ele><time>2026-04-16T16:04:22.004Z</time></trkpt><trkpt lat="45.58862839447203" lon="10.15170099986945"><ele>168.66666666666669</ele><time>2026-04-16T16:04:25.005Z</time></trkpt><trkpt lat="45.58855087368089" lon="10.151686572892416"><ele>168.83333333333334</ele><time>2026-04-16T16:04:28.005Z</time></trkpt><trkpt lat="45.588476305536055" lon="10.151669167440383"><ele>169.0</ele><time>2026-04-16T16:04:31.005Z</time></trkpt><trkpt lat="45.58840897568533" lon="10.151635893727429"><ele>168.5</ele><time>2026-04-16T16:04:34.005Z</time></trkpt><trkpt lat="45.588335726814904" lon="10.151607752287086"><ele>168.0</ele><time>2026-04-16T16:04:37.005Z</time></trkpt><trkpt lat="45.588261658907676" lon="10.151583401648704"><ele>167.5</ele><time>2026-04-16T16:04:40.005Z</time></trkpt><trkpt lat="45.58817910942326" lon="10.151594007673909"><ele>167.0</ele><time>2026-04-16T16:04:43.005Z</time></trkpt><trkpt lat="45.58809404556896" lon="10.151635889143183"><ele>166.5</ele><time>2026-04-16T16:04:46.005Z</time></trkpt><trkpt lat="45.58801730091919" lon="10.151679039763364"><ele>166.0</ele><time>2026-04-16T16:04:49.005Z</time></trkpt><trkpt lat="45.58794977256787" lon="10.151706755275569"><ele>166.0</ele><time>2026-04-16T16:04:52.005Z</time></trkpt><trkpt lat="45.58787509011849" lon="10.151739592837956"><ele>166.0</ele><time>2026-04-16T16:04:55.005Z</time></trkpt><trkpt lat="45.58779793618361" lon="10.151773003539326"><ele>166.0</ele><time>2026-04-16T16:04:58.005Z</time></trkpt><trkpt lat="45.58771532281916" lon="10.151770801340183"><ele>166.0</ele><time>2026-04-16T16:05:01.005Z</time></trkpt><trkpt lat="45.587637880451254" lon="10.151762605838686"><ele>166.0</ele><time>2026-04-16T16:05:04.005Z</time></trkpt><trkpt lat="45.58755405035944" lon="10.151741630749871"><ele>166.0</ele><time>2026-04-16T16:05:07.005Z</time></trkpt><trkpt lat="45.58747174307007" lon="10.151729128575957"><ele>166.0</ele><time>2026-04-16T16:05:10.005Z</time></trkpt><trkpt lat="45.58739609626547" lon="10.151705973161011"><ele>166.0</ele><time>2026-04-16T16:05:13.005Z</time></trkpt><trkpt lat="45.58732518747043" lon="10.151680817941491"><ele>166.0</ele><time>2026-04-16T16:05:16.005Z</time></trkpt><trkpt lat="45.58725449061934" lon="10.151639286638487"><ele>166.0</ele><time>2026-04-16T16:05:19.005Z</time></trkpt><trkpt lat="45.58720257357009" lon="10.151569229367553"><ele>166.0</ele><time>2026-04-16T16:05:22.005Z</time></trkpt><trkpt lat="45.587135486863886" lon="10.151535162604247"><ele>166.0</ele><time>2026-04-16T16:05:25.005Z</time></trkpt><trkpt lat="45.58705657652387" lon="10.15151511430975"><ele>165.66666666666669</ele><time>2026-04-16T16:05:28.005Z</time></trkpt><trkpt lat="45.58697576237356" lon="10.15152599112988"><ele>165.33333333333334</ele><time>2026-04-16T16:05:31.005Z</time></trkpt><trkpt lat="45.586890936080856" lon="10.151559984363402"><ele>165.0</ele><time>2026-04-16T16:05:34.005Z</time></trkpt><trkpt lat="45.586822971346116" lon="10.151599336020967"><ele>164.66666666666666</ele><time>2026-04-16T16:05:37.005Z</time></trkpt><trkpt lat="45.586755376756365" lon="10.151633448859075"><ele>164.33333333333331</ele><time>2026-04-16T16:05:40.005Z</time></trkpt><trkpt lat="45.58667177388701" lon="10.151643934438594"><ele>164.0</ele><time>2026-04-16T16:05:43.005Z</time></trkpt><trkpt lat="45.58659626119752" lon="10.151695786903465"><ele>164.0</ele><time>2026-04-16T16:05:46.005Z</time></trkpt><trkpt lat="45.58652191380273" lon="10.15171231473369"><ele>164.0</ele><time>2026-04-16T16:05:49.005Z</time></trkpt><trkpt lat="45.5864490757709" lon="10.15174829767065"><ele>164.0</ele><time>2026-04-16T16:05:52.005Z</time></trkpt><trkpt lat="45.586370770329545" lon="10.151789217620165"><ele>164.0</ele><time>2026-04-16T16:05:55.005Z</time></trkpt><trkpt lat="45.58628923727464" lon="10.15181478215085"><ele>164.0</ele><time>2026-04-16T16:05:58.005Z</time></trkpt><trkpt lat="45.58620854284502" lon="10.151816590820689"><ele>164.0</ele><time>2026-04-16T16:06:01.005Z</time></trkpt><trkpt lat="45.58613299898921" lon="10.151782985455618"><ele>163.5</ele><time>2026-04-16T16:06:04.005Z</time></trkpt><trkpt lat="45.5860681832919" lon="10.151733739290275"><ele>163.0</ele><time>2026-04-16T16:06:07.005Z</time></trkpt><trkpt lat="45.58599275830075" lon="10.15170730919889"><ele>162.5</ele><time>2026-04-16T16:06:10.005Z</time></trkpt><trkpt lat="45.585907501862174" lon="10.151685921368864"><ele>162.0</ele><time>2026-04-16T16:06:13.005Z</time></trkpt><trkpt lat="45.585837626422496" lon="10.151646897246694"><ele>161.5</ele><time>2026-04-16T16:06:16.005Z</time></trkpt><trkpt lat="45.585766031262594" lon="10.15162499888645"><ele>161.0</ele><time>2026-04-16T16:06:19.005Z</time></trkpt><trkpt lat="45.58569539880463" lon="10.1515946911626"><ele>161.0</ele><time>2026-04-16T16:06:22.005Z</time></trkpt><trkpt lat="45.58562373491731" lon="10.151555766460131"><ele>161.0</ele><time>2026-04-16T16:06:25.005Z</time></trkpt><trkpt lat="45.58556771874465" lon="10.151494589756194"><ele>161.0</ele><time>2026-04-16T16:06:28.005Z</time></trkpt><trkpt lat="45.58550657485686" lon="10.151466157395925"><ele>161.0</ele><time>2026-04-16T16:06:31.005Z</time></trkpt><trkpt lat="45.58544380907788" lon="10.151423955452628"><ele>161.0</ele><time>2026-04-16T16:06:34.005Z</time></trkpt><trkpt lat="45.585367932506784" lon="10.151402367779015"><ele>161.0</ele><time>2026-04-16T16:06:37.005Z</time></trkpt><trkpt lat="45.58530108940797" lon="10.151389355378653"><ele>161.0</ele><time>2026-04-16T16:06:40.005Z</time></trkpt><trkpt lat="45.58523464248831" lon="10.151376635633747"><ele>160.33333333333331</ele><time>2026-04-16T16:06:43.005Z</time></trkpt><trkpt lat="45.585150969085156" lon="10.151391960641389"><ele>159.66666666666666</ele><time>2026-04-16T16:06:46.005Z</time></trkpt><trkpt lat="45.58507694565386" lon="10.151399471470915"><ele>159.0</ele><time>2026-04-16T16:06:49.005Z</time></trkpt><trkpt lat="45.58499246596811" lon="10.151404690594719"><ele>158.33333333333334</ele><time>2026-04-16T16:06:53.005Z</time></trkpt><trkpt lat="45.58491928097766" lon="10.151419440878767"><ele>157.66666666666669</ele><time>2026-04-16T16:06:56.005Z</time></trkpt><trkpt lat="45.58485302152905" lon="10.15143270091211"><ele>157.0</ele><time>2026-04-16T16:06:59.005Z</time></trkpt><trkpt lat="45.58478772845519" lon="10.151494304553902"><ele>156.99999999999997</ele><time>2026-04-16T16:07:02.005Z</time></trkpt><trkpt lat="45.58472244791759" lon="10.151536956053999"><ele>157.0</ele><time>2026-04-16T16:07:05.005Z</time></trkpt><trkpt lat="45.584657444576976" lon="10.151581477518844"><ele>157.0</ele><time>2026-04-16T16:07:08.005Z</time></trkpt><trkpt lat="45.584587000691485" lon="10.151605179117462"><ele>157.0</ele><time>2026-04-16T16:07:11.005Z</time></trkpt><trkpt lat="45.58450719342895" lon="10.15162940681511"><ele>157.0</ele><time>2026-04-16T16:07:15.005Z</time></trkpt><trkpt lat="45.58444371776045" lon="10.151651446434151"><ele>156.99999999999997</ele><time>2026-04-16T16:07:18.005Z</time></trkpt><trkpt lat="45.584359715886" lon="10.151643856503535"><ele>157.0</ele><time>2026-04-16T16:07:22.005Z</time></trkpt><trkpt lat="45.584287761393675" lon="10.151677060639944"><ele>156.83333333333334</ele><time>2026-04-16T16:07:25.005Z</time></trkpt><trkpt lat="45.584223985148185" lon="10.151700502963688"><ele>156.66666666666669</ele><time>2026-04-16T16:07:28.005Z</time></trkpt><trkpt lat="45.58420333281228" lon="10.151794411465874"><ele>156.5</ele><time>2026-04-16T16:07:30.005Z</time></trkpt><trkpt lat="45.584152021376134" lon="10.151904360530938"><ele>156.33333333333334</ele><time>2026-04-16T16:07:33.006Z</time></trkpt><trkpt lat="45.58407016840301" lon="10.15193574713021"><ele>156.16666666666666</ele><time>2026-04-16T16:07:36.006Z</time></trkpt><trkpt lat="45.583983586807285" lon="10.151933841759298"><ele>156.0</ele><time>2026-04-16T16:07:39.006Z</time></trkpt><trkpt lat="45.5839010777363" lon="10.151933211817592"><ele>156.0</ele><time>2026-04-16T16:07:42.006Z</time></trkpt><trkpt lat="45.583826617989914" lon="10.151902913095423"><ele>156.0</ele><time>2026-04-16T16:07:45.006Z</time></trkpt><trkpt lat="45.583755326821134" lon="10.151874727719287"><ele>156.0</ele><time>2026-04-16T16:07:48.006Z</time></trkpt><trkpt lat="45.58371098831339" lon="10.15180295820296"><ele>156.0</ele><time>2026-04-16T16:07:51.006Z</time></trkpt><trkpt lat="45.58363337792722" lon="10.151777532884262"><ele>156.0</ele><time>2026-04-16T16:07:54.006Z</time></trkpt><trkpt lat="45.583556786901056" lon="10.151777486603338"><ele>156.0</ele><time>2026-04-16T16:07:57.006Z</time></trkpt><trkpt lat="45.58347775137378" lon="10.151753231030044"><ele>156.0</ele><time>2026-04-16T16:08:00.006Z</time></trkpt><trkpt lat="45.58340422200204" lon="10.151736537079351"><ele>156.0</ele><time>2026-04-16T16:08:03.006Z</time></trkpt><trkpt lat="45.583324422276306" lon="10.15174167125421"><ele>156.0</ele><time>2026-04-16T16:08:06.006Z</time></trkpt><trkpt lat="45.58324820718978" lon="10.151699861289764"><ele>156.0</ele><time>2026-04-16T16:08:09.006Z</time></trkpt><trkpt lat="45.583175126749154" lon="10.151645683703585"><ele>156.0</ele><time>2026-04-16T16:08:12.006Z</time></trkpt><trkpt lat="45.58312181580271" lon="10.151581296716232"><ele>156.0</ele><time>2026-04-16T16:08:15.006Z</time></trkpt><trkpt lat="45.58304917556423" lon="10.151561324717925"><ele>155.71428571428572</ele><time>2026-04-16T16:08:18.006Z</time></trkpt><trkpt lat="45.58298142807251" lon="10.151520105161854"><ele>155.42857142857142</ele><time>2026-04-16T16:08:21.006Z</time></trkpt><trkpt lat="45.58291792698162" lon="10.151477682701412"><ele>155.14285714285714</ele><time>2026-04-16T16:08:24.006Z</time></trkpt><trkpt lat="45.582848659100385" lon="10.151442673664718"><ele>154.85714285714286</ele><time>2026-04-16T16:08:27.006Z</time></trkpt><trkpt lat="45.58278299312177" lon="10.151407881467176"><ele>154.57142857142856</ele><time>2026-04-16T16:08:30.006Z</time></trkpt><trkpt lat="45.5827130908928" lon="10.151374492692714"><ele>154.28571428571428</ele><time>2026-04-16T16:08:33.006Z</time></trkpt><trkpt lat="45.58263909589508" lon="10.151350515061601"><ele>154.0</ele><time>2026-04-16T16:08:36.006Z</time></trkpt><trkpt lat="45.5825794528958" lon="10.15130280690495"><ele>153.83333333333334</ele><time>2026-04-16T16:08:39.006Z</time></trkpt><trkpt lat="45.58251566744612" lon="10.151244608154176"><ele>153.66666666666669</ele><time>2026-04-16T16:08:42.006Z</time></trkpt><trkpt lat="45.58244697117673" lon="10.151150671285555"><ele>153.5</ele><time>2026-04-16T16:08:46.006Z</time></trkpt><trkpt lat="45.582370936954156" lon="10.15109109825831"><ele>153.33333333333334</ele><time>2026-04-16T16:08:50.006Z</time></trkpt><trkpt lat="45.58232244227192" lon="10.15101572491169"><ele>153.16666666666666</ele><time>2026-04-16T16:08:53.006Z</time></trkpt><trkpt lat="45.582266040370314" lon="10.150951158885565"><ele>153.0</ele><time>2026-04-16T16:08:56.006Z</time></trkpt><trkpt lat="45.5822117374205" lon="10.150892230169864"><ele>153.0</ele><time>2026-04-16T16:08:59.006Z</time></trkpt><trkpt lat="45.582175599579834" lon="10.15079704379635"><ele>153.0</ele><time>2026-04-16T16:09:02.006Z</time></trkpt><trkpt lat="45.58212880263388" lon="10.15072706235314"><ele>153.0</ele><time>2026-04-16T16:09:05.006Z</time></trkpt><trkpt lat="45.58208443137913" lon="10.150649116157274"><ele>153.0</ele><time>2026-04-16T16:09:08.006Z</time></trkpt><trkpt lat="45.582026958084775" lon="10.150591544275839"><ele>153.0</ele><time>2026-04-16T16:09:10.998Z</time></trkpt><trkpt lat="45.581974452922985" lon="10.150520793962603"><ele>153.0</ele><time>2026-04-16T16:09:13.998Z</time></trkpt><trkpt lat="45.58191621045282" lon="10.150457450055548"><ele>153.0</ele><time>2026-04-16T16:09:16.998Z</time></trkpt><trkpt lat="45.58186139475432" lon="10.150386937295199"><ele>152.16666666666666</ele><time>2026-04-16T16:09:19.998Z</time></trkpt><trkpt lat="45.58181302847428" lon="10.150317410987173"><ele>151.33333333333334</ele><time>2026-04-16T16:09:22.999Z</time></trkpt><trkpt lat="45.58181489367343" lon="10.150203184176556"><ele>150.5</ele><time>2026-04-16T16:09:25.999Z</time></trkpt><trkpt lat="45.58182580581127" lon="10.150080362051272"><ele>149.66666666666669</ele><time>2026-04-16T16:09:28.999Z</time></trkpt><trkpt lat="45.58183979790848" lon="10.149969967693128"><ele>148.83333333333334</ele><time>2026-04-16T16:09:31.999Z</time></trkpt><trkpt lat="45.58185056986677" lon="10.149847997186606"><ele>148.0</ele><time>2026-04-16T16:09:34.999Z</time></trkpt><trkpt lat="45.58183616328653" lon="10.149726464000373"><ele>147.83333333333334</ele><time>2026-04-16T16:09:37.999Z</time></trkpt><trkpt lat="45.58183898410216" lon="10.14959876601888"><ele>147.66666666666669</ele><time>2026-04-16T16:09:40.999Z</time></trkpt><trkpt lat="45.58183326409365" lon="10.149506466491955"><ele>147.5</ele><time>2026-04-16T16:09:42.999Z</time></trkpt><trkpt lat="45.58182976683597" lon="10.149411339313227"><ele>147.33333333333334</ele><time>2026-04-16T16:09:44.999Z</time></trkpt><trkpt lat="45.581827030347526" lon="10.149299636573849"><ele>147.16666666666666</ele><time>2026-04-16T16:09:46.999Z</time></trkpt><trkpt lat="45.5818235218686" lon="10.149204520471008"><ele>147.0</ele><time>2026-04-16T16:09:48.999Z</time></trkpt><trkpt lat="45.58183754362265" lon="10.149082378271252"><ele>146.83333333333334</ele><time>2026-04-16T16:09:51.999Z</time></trkpt><trkpt lat="45.581827440227826" lon="10.148964013521006"><ele>146.66666666666666</ele><time>2026-04-16T16:09:54.999Z</time></trkpt><trkpt lat="45.58183245863388" lon="10.148845400790359"><ele>146.5</ele><time>2026-04-16T16:09:57.999Z</time></trkpt><trkpt lat="45.5818421872849" lon="10.148733044165143"><ele>146.33333333333331</ele><time>2026-04-16T16:10:00.998Z</time></trkpt><trkpt lat="45.58182526427736" lon="10.148644929129606"><ele>146.16666666666666</ele><time>2026-04-16T16:10:02.998Z</time></trkpt><trkpt lat="45.58183914059305" lon="10.148518259091981"><ele>146.0</ele><time>2026-04-16T16:10:05.998Z</time></trkpt><trkpt lat="45.58183655141622" lon="10.148406945615182"><ele>146.0</ele><time>2026-04-16T16:10:08.999Z</time></trkpt><trkpt lat="45.58183149752434" lon="10.148286727953701"><ele>146.0</ele><time>2026-04-16T16:10:11.999Z</time></trkpt><trkpt lat="45.58183646013686" lon="10.148161137589707"><ele>146.0</ele><time>2026-04-16T16:10:14.999Z</time></trkpt><trkpt lat="45.58183073510755" lon="10.148044179687327"><ele>146.0</ele><time>2026-04-16T16:10:17.999Z</time></trkpt><trkpt lat="45.58184231724967" lon="10.147941622896191"><ele>146.0</ele><time>2026-04-16T16:10:20.999Z</time></trkpt><trkpt lat="45.58185865424218" lon="10.147806577126472"><ele>146.0</ele><time>2026-04-16T16:10:23.999Z</time></trkpt><trkpt lat="45.58189029179707" lon="10.147685728269195"><ele>146.0</ele><time>2026-04-16T16:10:26.999Z</time></trkpt><trkpt lat="45.58191112358136" lon="10.147596458334379"><ele>146.0</ele><time>2026-04-16T16:10:28.999Z</time></trkpt><trkpt lat="45.58191482955386" lon="10.147503685895886"><ele>146.0</ele><time>2026-04-16T16:10:30.999Z</time></trkpt><trkpt lat="45.58192516502443" lon="10.14737978461983"><ele>146.0</ele><time>2026-04-16T16:10:33.999Z</time></trkpt><trkpt lat="45.581950863235825" lon="10.147252068663246"><ele>146.0</ele><time>2026-04-16T16:10:36.999Z</time></trkpt><trkpt lat="45.581969337214574" lon="10.14716035020906"><ele>146.0</ele><time>2026-04-16T16:10:38.999Z</time></trkpt><trkpt lat="45.58199261640985" lon="10.147037938424234"><ele>146.0</ele><time>2026-04-16T16:10:41.999Z</time></trkpt><trkpt lat="45.581997463394934" lon="10.146941051743541"><ele>146.0</ele><time>2026-04-16T16:10:43.999Z</time></trkpt><trkpt lat="45.58200184890057" lon="10.146815455233025"><ele>146.0</ele><time>2026-04-16T16:10:46.999Z</time></trkpt><trkpt lat="45.582011855083095" lon="10.14668361855637"><ele>146.0</ele><time>2026-04-16T16:10:49.999Z</time></trkpt><trkpt lat="45.58203444560648" lon="10.146574627650093"><ele>146.0</ele><time>2026-04-16T16:10:52.999Z</time></trkpt><trkpt lat="45.58202844735032" lon="10.146472075414502"><ele>146.0</ele><time>2026-04-16T16:10:55.999Z</time></trkpt><trkpt lat="45.58202707668631" lon="10.14634956287691"><ele>146.14285714285714</ele><time>2026-04-16T16:10:58.999Z</time></trkpt><trkpt lat="45.58201194665732" lon="10.146234851404648"><ele>146.28571428571428</ele><time>2026-04-16T16:11:01.999Z</time></trkpt><trkpt lat="45.582013212823846" lon="10.146133028541332"><ele>146.42857142857144</ele><time>2026-04-16T16:11:04.999Z</time></trkpt><trkpt lat="45.58202004930104" lon="10.14603587417881"><ele>146.57142857142856</ele><time>2026-04-16T16:11:07.999Z</time></trkpt><trkpt lat="45.58201493842189" lon="10.14592570701911"><ele>146.71428571428572</ele><time>2026-04-16T16:11:10.999Z</time></trkpt><trkpt lat="45.5820013149612" lon="10.14581372364731"><ele>146.85714285714286</ele><time>2026-04-16T16:11:13.999Z</time></trkpt><trkpt lat="45.58200899190333" lon="10.145712351977956"><ele>147.0</ele><time>2026-04-16T16:11:16.999Z</time></trkpt><trkpt lat="45.58201735067374" lon="10.14559537728637"><ele>147.14285714285714</ele><time>2026-04-16T16:11:19.999Z</time></trkpt><trkpt lat="45.58202676554113" lon="10.14549653065531"><ele>147.28571428571428</ele><time>2026-04-16T16:11:22.999Z</time></trkpt><trkpt lat="45.58202466326933" lon="10.145398800029735"><ele>147.42857142857144</ele><time>2026-04-16T16:11:25.999Z</time></trkpt><trkpt lat="45.58207537226207" lon="10.145304418621135"><ele>147.57142857142856</ele><time>2026-04-16T16:11:28.999Z</time></trkpt><trkpt lat="45.58208330565256" lon="10.145202356330486"><ele>147.71428571428572</ele><time>2026-04-16T16:11:31.999Z</time></trkpt><trkpt lat="45.58208570180661" lon="10.14508279508711"><ele>147.85714285714286</ele><time>2026-04-16T16:11:34.999Z</time></trkpt><trkpt lat="45.582079249393985" lon="10.144979915898372"><ele>148.0</ele><time>2026-04-16T16:11:37.999Z</time></trkpt><trkpt lat="45.58207290968915" lon="10.144878146529702"><ele>147.5</ele><time>2026-04-16T16:11:40.999Z</time></trkpt><trkpt lat="45.58206275646272" lon="10.144773064566062"><ele>147.0</ele><time>2026-04-16T16:11:43.999Z</time></trkpt><trkpt lat="45.58205947532201" lon="10.144650637059371"><ele>146.5</ele><time>2026-04-16T16:11:47.999Z</time></trkpt><trkpt lat="45.58204679609442" lon="10.144547593791135"><ele>146.0</ele><time>2026-04-16T16:11:50.999Z</time></trkpt><trkpt lat="45.58203656527695" lon="10.144439413786625"><ele>145.5</ele><time>2026-04-16T16:11:53.999Z</time></trkpt><trkpt lat="45.58203098526023" lon="10.144332219759447"><ele>145.0</ele><time>2026-04-16T16:11:56.999Z</time></trkpt><trkpt lat="45.58201676057927" lon="10.144229372870347"><ele>145.0</ele><time>2026-04-16T16:11:59.999Z</time></trkpt><trkpt lat="45.58201843357668" lon="10.144112692597059"><ele>145.0</ele><time>2026-04-16T16:12:02.998Z</time></trkpt><trkpt lat="45.58201941561083" lon="10.143996787942823"><ele>145.0</ele><time>2026-04-16T16:12:05.999Z</time></trkpt><trkpt lat="45.58203486446868" lon="10.14388672711452"><ele>145.0</ele><time>2026-04-16T16:12:08.999Z</time></trkpt><trkpt lat="45.58205032196398" lon="10.14377134282016"><ele>145.0</ele><time>2026-04-16T16:12:11.998Z</time></trkpt><trkpt lat="45.58205036971786" lon="10.143678462542425"><ele>145.0</ele><time>2026-04-16T16:12:13.998Z</time></trkpt><trkpt lat="45.582061843681885" lon="10.14358349619421"><ele>144.83333333333334</ele><time>2026-04-16T16:12:15.998Z</time></trkpt><trkpt lat="45.582076150321825" lon="10.14346143160502"><ele>144.66666666666669</ele><time>2026-04-16T16:12:18.998Z</time></trkpt><trkpt lat="45.58209216233944" lon="10.143336506531487"><ele>144.5</ele><time>2026-04-16T16:12:21.999Z</time></trkpt><trkpt lat="45.582102526433204" lon="10.143222049658329"><ele>144.33333333333334</ele><time>2026-04-16T16:12:24.999Z</time></trkpt><trkpt lat="45.582110970086596" lon="10.143111423669254"><ele>144.16666666666666</ele><time>2026-04-16T16:12:27.999Z</time></trkpt><trkpt lat="45.582124921965566" lon="10.14299934824132"><ele>144.0</ele><time>2026-04-16T16:12:30.999Z</time></trkpt><trkpt lat="45.58214022131512" lon="10.142898266243058"><ele>144.33333333333334</ele><time>2026-04-16T16:12:33.999Z</time></trkpt><trkpt lat="45.58214961252584" lon="10.14278179720102"><ele>144.66666666666666</ele><time>2026-04-16T16:12:36.999Z</time></trkpt><trkpt lat="45.582161336875316" lon="10.142663363338743"><ele>145.0</ele><time>2026-04-16T16:12:39.999Z</time></trkpt><trkpt lat="45.582171362042104" lon="10.142540829538406"><ele>145.33333333333331</ele><time>2026-04-16T16:12:42.999Z</time></trkpt><trkpt lat="45.58217699615787" lon="10.142419898851688"><ele>145.66666666666666</ele><time>2026-04-16T16:12:45.999Z</time></trkpt><trkpt lat="45.58219376648867" lon="10.142305996978989"><ele>146.0</ele><time>2026-04-16T16:12:48.999Z</time></trkpt><trkpt lat="45.582217775093625" lon="10.14219100948677"><ele>146.16666666666666</ele><time>2026-04-16T16:12:51.999Z</time></trkpt><trkpt lat="45.5822242727833" lon="10.142059514102266"><ele>146.33333333333331</ele><time>2026-04-16T16:12:54.999Z</time></trkpt><trkpt lat="45.5822256963134" lon="10.141940249703648"><ele>146.5</ele><time>2026-04-16T16:12:57.999Z</time></trkpt><trkpt lat="45.58222827314898" lon="10.141811328970375"><ele>146.66666666666666</ele><time>2026-04-16T16:13:00.999Z</time></trkpt><trkpt lat="45.58221336868918" lon="10.141721233484619"><ele>146.83333333333334</ele><time>2026-04-16T16:13:02.999Z</time></trkpt><trkpt lat="45.58221223887421" lon="10.141590054030996"><ele>147.0</ele><time>2026-04-16T16:13:05.999Z</time></trkpt><trkpt lat="45.582212490123055" lon="10.141465504694182"><ele>147.16666666666666</ele><time>2026-04-16T16:13:08.999Z</time></trkpt><trkpt lat="45.58221141139912" lon="10.141346253473541"><ele>147.33333333333334</ele><time>2026-04-16T16:13:11.999Z</time></trkpt><trkpt lat="45.58221939107798" lon="10.141241400645407"><ele>147.5</ele><time>2026-04-16T16:13:14.999Z</time></trkpt><trkpt lat="45.58222291752548" lon="10.141122707157363"><ele>147.66666666666669</ele><time>2026-04-16T16:13:17.999Z</time></trkpt><trkpt lat="45.582225621951274" lon="10.140994910395543"><ele>147.83333333333334</ele><time>2026-04-16T16:13:20.999Z</time></trkpt><trkpt lat="45.58222840995789" lon="10.140903550996665"><ele>148.0</ele><time>2026-04-16T16:13:22.999Z</time></trkpt><trkpt lat="45.582245234493584" lon="10.140785442602624"><ele>147.83333333333334</ele><time>2026-04-16T16:13:25.999Z</time></trkpt><trkpt lat="45.58225876045709" lon="10.140652329535872"><ele>147.66666666666669</ele><time>2026-04-16T16:13:28.999Z</time></trkpt><trkpt lat="45.5822766633333" lon="10.140528320570912"><ele>147.5</ele><time>2026-04-16T16:13:31.999Z</time></trkpt><trkpt lat="45.58228925618456" lon="10.140440022234651"><ele>147.33333333333334</ele><time>2026-04-16T16:13:33.999Z</time></trkpt><trkpt lat="45.582312277376715" lon="10.140332304764737"><ele>147.16666666666666</ele><time>2026-04-16T16:13:36.999Z</time></trkpt><trkpt lat="45.58232568464414" lon="10.140243866732296"><ele>147.0</ele><time>2026-04-16T16:13:38.999Z</time></trkpt><trkpt lat="45.58233075644812" lon="10.1401183565204"><ele>147.0</ele><time>2026-04-16T16:13:41.999Z</time></trkpt><trkpt lat="45.5823585354695" lon="10.140008202382877"><ele>147.0</ele><time>2026-04-16T16:13:44.999Z</time></trkpt><trkpt lat="45.58238952678567" lon="10.139902861777582"><ele>147.0</ele><time>2026-04-16T16:13:47.999Z</time></trkpt><trkpt lat="45.58241919332632" lon="10.1397925929412"><ele>147.0</ele><time>2026-04-16T16:13:50.999Z</time></trkpt><trkpt lat="45.58243136560094" lon="10.139666539950214"><ele>147.0</ele><time>2026-04-16T16:13:53.999Z</time></trkpt><trkpt lat="45.58245669071593" lon="10.13955136843836"><ele>147.0</ele><time>2026-04-16T16:13:56.999Z</time></trkpt><trkpt lat="45.582484785858526" lon="10.13943671604048"><ele>147.0</ele><time>2026-04-16T16:13:59.999Z</time></trkpt><trkpt lat="45.58250900446785" lon="10.139327040687975"><ele>147.0</ele><time>2026-04-16T16:14:02.999Z</time></trkpt><trkpt lat="45.5825309783576" lon="10.139234071270922"><ele>147.0</ele><time>2026-04-16T16:14:05.999Z</time></trkpt><trkpt lat="45.58255785798447" lon="10.139121803126608"><ele>147.0</ele><time>2026-04-16T16:14:08.998Z</time></trkpt><trkpt lat="45.58259476999777" lon="10.13902371177549"><ele>147.0</ele><time>2026-04-16T16:14:11.998Z</time></trkpt><trkpt lat="45.58263585505292" lon="10.138944991986246"><ele>147.0</ele><time>2026-04-16T16:14:14.998Z</time></trkpt><trkpt lat="45.58267878962233" lon="10.138856451764244"><ele>147.0</ele><time>2026-04-16T16:14:17.998Z</time></trkpt><trkpt lat="45.5827159338914" lon="10.138756832579155"><ele>147.0</ele><time>2026-04-16T16:14:20.998Z</time></trkpt><trkpt lat="45.58274948664899" lon="10.13866258415759"><ele>147.0</ele><time>2026-04-16T16:14:23.998Z</time></trkpt><trkpt lat="45.58278878788506" lon="10.13855701847214"><ele>147.0</ele><time>2026-04-16T16:14:26.998Z</time></trkpt><trkpt lat="45.582837207443255" lon="10.13846330716318"><ele>147.0</ele><time>2026-04-16T16:14:29.998Z</time></trkpt><trkpt lat="45.582875957875935" lon="10.138353607309018"><ele>147.0</ele><time>2026-04-16T16:14:32.998Z</time></trkpt><trkpt lat="45.58292109061234" lon="10.138253040559217"><ele>147.16666666666666</ele><time>2026-04-16T16:14:35.998Z</time></trkpt><trkpt lat="45.58295738376935" lon="10.13814930420769"><ele>147.33333333333334</ele><time>2026-04-16T16:14:38.998Z</time></trkpt><trkpt lat="45.58299673860442" lon="10.138038087202652"><ele>147.5</ele><time>2026-04-16T16:14:41.998Z</time></trkpt><trkpt lat="45.583042481155395" lon="10.137931282979736"><ele>147.66666666666669</ele><time>2026-04-16T16:14:44.998Z</time></trkpt><trkpt lat="45.58306573108938" lon="10.13782064931245"><ele>147.83333333333334</ele><time>2026-04-16T16:14:47.998Z</time></trkpt><trkpt lat="45.58310058722251" lon="10.13772589628648"><ele>148.0</ele><time>2026-04-16T16:14:50.998Z</time></trkpt><trkpt lat="45.583143209959786" lon="10.137638400762103"><ele>148.0</ele><time>2026-04-16T16:14:53.998Z</time></trkpt><trkpt lat="45.58317959285853" lon="10.13754277600512"><ele>148.0</ele><time>2026-04-16T16:14:56.998Z</time></trkpt><trkpt lat="45.583213483397245" lon="10.13744890134513"><ele>148.0</ele><time>2026-04-16T16:14:59.998Z</time></trkpt><trkpt lat="45.583244553079886" lon="10.137359320452541"><ele>148.0</ele><time>2026-04-16T16:15:02.998Z</time></trkpt><trkpt lat="45.583277860302104" lon="10.137267485801642"><ele>148.0</ele><time>2026-04-16T16:15:05.998Z</time></trkpt><trkpt lat="45.58330340733163" lon="10.137168791176126"><ele>148.0</ele><time>2026-04-16T16:15:08.998Z</time></trkpt><trkpt lat="45.58332957840334" lon="10.137079463137447"><ele>148.0</ele><time>2026-04-16T16:15:11.998Z</time></trkpt><trkpt lat="45.583354999898084" lon="10.13697975219188"><ele>148.0</ele><time>2026-04-16T16:15:14.998Z</time></trkpt><trkpt lat="45.58336954290549" lon="10.136874652177568"><ele>148.0</ele><time>2026-04-16T16:15:17.998Z</time></trkpt><trkpt lat="45.58338880099087" lon="10.136768186188219"><ele>148.0</ele><time>2026-04-16T16:15:20.998Z</time></trkpt><trkpt lat="45.58340081495134" lon="10.13666205170892"><ele>148.0</ele><time>2026-04-16T16:15:23.998Z</time></trkpt><trkpt lat="45.583413329734604" lon="10.136551540964899"><ele>148.0</ele><time>2026-04-16T16:15:26.998Z</time></trkpt><trkpt lat="45.58342062774652" lon="10.13643655067973"><ele>148.0</ele><time>2026-04-16T16:15:29.998Z</time></trkpt><trkpt lat="45.58343447435046" lon="10.13632559764184"><ele>148.14285714285714</ele><time>2026-04-16T16:15:32.998Z</time></trkpt><trkpt lat="45.583437251401925" lon="10.136216098934606"><ele>148.28571428571428</ele><time>2026-04-16T16:15:35.998Z</time></trkpt><trkpt lat="45.58345904727591" lon="10.136119742131559"><ele>148.42857142857142</ele><time>2026-04-16T16:15:38.998Z</time></trkpt><trkpt lat="45.58346847364564" lon="10.136013987726873"><ele>148.57142857142856</ele><time>2026-04-16T16:15:41.998Z</time></trkpt><trkpt lat="45.583489336687386" lon="10.135916983601245"><ele>148.7142857142857</ele><time>2026-04-16T16:15:44.998Z</time></trkpt><trkpt lat="45.583504819517415" lon="10.135823688310342"><ele>148.85714285714286</ele><time>2026-04-16T16:15:47.998Z</time></trkpt><trkpt lat="45.58353278642565" lon="10.135736735757604"><ele>149.0</ele><time>2026-04-16T16:15:50.998Z</time></trkpt><trkpt lat="45.58355790780441" lon="10.135639421369643"><ele>149.16666666666666</ele><time>2026-04-16T16:15:53.998Z</time></trkpt><trkpt lat="45.58358750017245" lon="10.135537150515699"><ele>149.33333333333331</ele><time>2026-04-16T16:15:56.998Z</time></trkpt><trkpt lat="45.58360540106662" lon="10.135438278124317"><ele>149.5</ele><time>2026-04-16T16:15:59.998Z</time></trkpt><trkpt lat="45.58363454103014" lon="10.135343321572238"><ele>149.66666666666666</ele><time>2026-04-16T16:16:02.998Z</time></trkpt><trkpt lat="45.583661121032954" lon="10.135238372851179"><ele>149.83333333333334</ele><time>2026-04-16T16:16:05.998Z</time></trkpt><trkpt lat="45.58368091637894" lon="10.13511983096373"><ele>150.0</ele><time>2026-04-16T16:16:08.998Z</time></trkpt><trkpt lat="45.583697560287916" lon="10.13499793013623"><ele>150.0</ele><time>2026-04-16T16:16:11.998Z</time></trkpt><trkpt lat="45.58371794515674" lon="10.134874321011916"><ele>150.0</ele><time>2026-04-16T16:16:14.998Z</time></trkpt><trkpt lat="45.58374247406777" lon="10.134762773119729"><ele>150.0</ele><time>2026-04-16T16:16:17.998Z</time></trkpt><trkpt lat="45.58375303794051" lon="10.134634262571016"><ele>150.0</ele><time>2026-04-16T16:16:20.998Z</time></trkpt><trkpt lat="45.58377010719118" lon="10.134512835006468"><ele>150.0</ele><time>2026-04-16T16:16:23.998Z</time></trkpt><trkpt lat="45.583787155767254" lon="10.134394702808946"><ele>150.0</ele><time>2026-04-16T16:16:26.998Z</time></trkpt><trkpt lat="45.5837922559441" lon="10.134276012627428"><ele>150.0</ele><time>2026-04-16T16:16:29.998Z</time></trkpt><trkpt lat="45.5838119806381" lon="10.134161428283637"><ele>150.0</ele><time>2026-04-16T16:16:32.998Z</time></trkpt><trkpt lat="45.583829834540325" lon="10.134044948969168"><ele>150.0</ele><time>2026-04-16T16:16:35.998Z</time></trkpt><trkpt lat="45.583840494193176" lon="10.133936935932272"><ele>150.0</ele><time>2026-04-16T16:16:38.998Z</time></trkpt><trkpt lat="45.583850719400914" lon="10.13382230377736"><ele>150.0</ele><time>2026-04-16T16:16:41.998Z</time></trkpt><trkpt lat="45.583881313656065" lon="10.133710544683053"><ele>150.0</ele><time>2026-04-16T16:16:44.998Z</time></trkpt><trkpt lat="45.583903058330705" lon="10.133599750771582"><ele>150.33333333333334</ele><time>2026-04-16T16:16:47.998Z</time></trkpt><trkpt lat="45.58391607452946" lon="10.133486374728166"><ele>150.66666666666666</ele><time>2026-04-16T16:16:50.998Z</time></trkpt><trkpt lat="45.58393041874612" lon="10.133369645086042"><ele>151.0</ele><time>2026-04-16T16:16:53.998Z</time></trkpt><trkpt lat="45.58395338058624" lon="10.133252180474706"><ele>151.33333333333331</ele><time>2026-04-16T16:16:56.998Z</time></trkpt><trkpt lat="45.583990444036004" lon="10.133145221127384"><ele>151.66666666666666</ele><time>2026-04-16T16:16:59.998Z</time></trkpt><trkpt lat="45.58403204266134" lon="10.133036058731921"><ele>152.0</ele><time>2026-04-16T16:17:02.998Z</time></trkpt><trkpt lat="45.58407660632341" lon="10.132952170228181"><ele>152.16666666666666</ele><time>2026-04-16T16:17:05.998Z</time></trkpt><trkpt lat="45.58411850113266" lon="10.132875608976407"><ele>152.33333333333331</ele><time>2026-04-16T16:17:07.998Z</time></trkpt><trkpt lat="45.58417501291859" lon="10.132778382467867"><ele>152.5</ele><time>2026-04-16T16:17:10.998Z</time></trkpt><trkpt lat="45.5842343847388" lon="10.132677333074241"><ele>152.66666666666666</ele><time>2026-04-16T16:17:13.998Z</time></trkpt><trkpt lat="45.58429037653354" lon="10.132582851618578"><ele>152.83333333333334</ele><time>2026-04-16T16:17:16.998Z</time></trkpt><trkpt lat="45.58435049573717" lon="10.132503893442378"><ele>153.0</ele><time>2026-04-16T16:17:19.998Z</time></trkpt><trkpt lat="45.58439752283316" lon="10.13243437224292"><ele>152.8</ele><time>2026-04-16T16:17:21.998Z</time></trkpt><trkpt lat="45.584466081607765" lon="10.132340658700338"><ele>152.60000000000002</ele><time>2026-04-16T16:17:24.998Z</time></trkpt><trkpt lat="45.584531486000515" lon="10.132236717767897"><ele>152.39999999999998</ele><time>2026-04-16T16:17:27.998Z</time></trkpt><trkpt lat="45.584598648787235" lon="10.132140581300828"><ele>152.2</ele><time>2026-04-16T16:17:30.998Z</time></trkpt><trkpt lat="45.58465460142197" lon="10.132055146340935"><ele>152.0</ele><time>2026-04-16T16:17:33.998Z</time></trkpt><trkpt lat="45.584706659694945" lon="10.13196240800287"><ele>152.16666666666666</ele><time>2026-04-16T16:17:36.999Z</time></trkpt><trkpt lat="45.58476952282433" lon="10.131875676255742"><ele>152.33333333333331</ele><time>2026-04-16T16:17:39.999Z</time></trkpt><trkpt lat="45.58482519337439" lon="10.13177737968671"><ele>152.5</ele><time>2026-04-16T16:17:42.999Z</time></trkpt><trkpt lat="45.58488662604889" lon="10.131701078206786"><ele>152.66666666666666</ele><time>2026-04-16T16:17:45.999Z</time></trkpt><trkpt lat="45.58494495952488" lon="10.131628993865455"><ele>152.83333333333334</ele><time>2026-04-16T16:17:48.999Z</time></trkpt><trkpt lat="45.584998289668405" lon="10.131547488357649"><ele>153.0</ele><time>2026-04-16T16:17:51.999Z</time></trkpt><trkpt lat="45.585052833735766" lon="10.131465266849364"><ele>153.0</ele><time>2026-04-16T16:17:54.999Z</time></trkpt><trkpt lat="45.585105445211305" lon="10.131387265219223"><ele>153.0</ele><time>2026-04-16T16:17:57.999Z</time></trkpt><trkpt lat="45.58516178159631" lon="10.131320654166176"><ele>153.0</ele><time>2026-04-16T16:18:00.999Z</time></trkpt><trkpt lat="45.58521888412794" lon="10.131235514220773"><ele>153.0</ele><time>2026-04-16T16:18:03.999Z</time></trkpt><trkpt lat="45.585273083412545" lon="10.13116357832344"><ele>153.0</ele><time>2026-04-16T16:18:06.999Z</time></trkpt><trkpt lat="45.585315257712054" lon="10.13108010029004"><ele>153.0</ele><time>2026-04-16T16:18:09.999Z</time></trkpt><trkpt lat="45.58536887298926" lon="10.131030009030297"><ele>153.0</ele><time>2026-04-16T16:18:12.999Z</time></trkpt><trkpt lat="45.58542086686125" lon="10.130947423314609"><ele>153.16666666666666</ele><time>2026-04-16T16:18:15.999Z</time></trkpt><trkpt lat="45.585468042973595" lon="10.130877208133615"><ele>153.33333333333334</ele><time>2026-04-16T16:18:18.999Z</time></trkpt><trkpt lat="45.58552156084027" lon="10.130797047059469"><ele>153.5</ele><time>2026-04-16T16:18:21.997Z</time></trkpt><trkpt lat="45.58557353197649" lon="10.130740377800853"><ele>153.66666666666669</ele><time>2026-04-16T16:18:24.998Z</time></trkpt><trkpt lat="45.585618188968354" lon="10.130656276389885"><ele>153.83333333333334</ele><time>2026-04-16T16:18:27.998Z</time></trkpt><trkpt lat="45.58568375726835" lon="10.130581620344998"><ele>154.0</ele><time>2026-04-16T16:18:30.997Z</time></trkpt><trkpt lat="45.58573069636405" lon="10.130470886147698"><ele>154.16666666666669</ele><time>2026-04-16T16:18:33.998Z</time></trkpt><trkpt lat="45.585766248282134" lon="10.130354202890807"><ele>154.33333333333334</ele><time>2026-04-16T16:18:36.998Z</time></trkpt><trkpt lat="45.585802236335134" lon="10.130231286435091"><ele>154.5</ele><time>2026-04-16T16:18:39.998Z</time></trkpt><trkpt lat="45.58583522270609" lon="10.130112426055039"><ele>154.66666666666666</ele><time>2026-04-16T16:18:42.998Z</time></trkpt><trkpt lat="45.58587786073154" lon="10.129993684827392"><ele>154.83333333333331</ele><time>2026-04-16T16:18:45.998Z</time></trkpt><trkpt lat="45.585930591984706" lon="10.129902706794585"><ele>155.0</ele><time>2026-04-16T16:18:48.998Z</time></trkpt><trkpt lat="45.58598719739465" lon="10.12979785179138"><ele>155.0</ele><time>2026-04-16T16:18:51.998Z</time></trkpt><trkpt lat="45.58603125891579" lon="10.129689886946778"><ele>155.0</ele><time>2026-04-16T16:18:54.998Z</time></trkpt><trkpt lat="45.58607979055049" lon="10.129586828767284"><ele>155.0</ele><time>2026-04-16T16:18:57.998Z</time></trkpt><trkpt lat="45.58612679697325" lon="10.129497408429293"><ele>155.0</ele><time>2026-04-16T16:19:00.998Z</time></trkpt><trkpt lat="45.586178082161844" lon="10.129401533273954"><ele>155.0</ele><time>2026-04-16T16:19:03.998Z</time></trkpt><trkpt lat="45.586225996779916" lon="10.129298371792308"><ele>155.0</ele><time>2026-04-16T16:19:06.998Z</time></trkpt><trkpt lat="45.58627013891304" lon="10.129198603757384"><ele>155.0</ele><time>2026-04-16T16:19:09.998Z</time></trkpt><trkpt lat="45.586319438884715" lon="10.129101883112991"><ele>155.0</ele><time>2026-04-16T16:19:12.998Z</time></trkpt><trkpt lat="45.58636446637226" lon="10.129011767330635"><ele>155.0</ele><time>2026-04-16T16:19:15.998Z</time></trkpt><trkpt lat="45.58641300149669" lon="10.12891755094212"><ele>155.0</ele><time>2026-04-16T16:19:18.998Z</time></trkpt><trkpt lat="45.58645973928483" lon="10.12883383326827"><ele>155.0</ele><time>2026-04-16T16:19:21.998Z</time></trkpt><trkpt lat="45.58650266379926" lon="10.128755594423096"><ele>155.0</ele><time>2026-04-16T16:19:24.998Z</time></trkpt><trkpt lat="45.58655921032797" lon="10.128671285363408"><ele>155.0</ele><time>2026-04-16T16:19:27.998Z</time></trkpt><trkpt lat="45.586617501319694" lon="10.128580060957304"><ele>155.0</ele><time>2026-04-16T16:19:30.998Z</time></trkpt><trkpt lat="45.58668126181788" lon="10.128502416350017"><ele>155.0</ele><time>2026-04-16T16:19:33.998Z</time></trkpt><trkpt lat="45.5867402776188" lon="10.128414571486065"><ele>155.0</ele><time>2026-04-16T16:19:36.998Z</time></trkpt><trkpt lat="45.58680294045328" lon="10.12833443470795"><ele>155.0</ele><time>2026-04-16T16:19:39.998Z</time></trkpt><trkpt lat="45.58686859152934" lon="10.128252839266999"><ele>155.0</ele><time>2026-04-16T16:19:42.998Z</time></trkpt><trkpt lat="45.586922287186155" lon="10.128162738708449"><ele>155.0</ele><time>2026-04-16T16:19:45.998Z</time></trkpt><trkpt lat="45.586985016784915" lon="10.128086293859184"><ele>155.0</ele><time>2026-04-16T16:19:48.998Z</time></trkpt><trkpt lat="45.58703623802111" lon="10.12798421237535"><ele>155.0</ele><time>2026-04-16T16:19:51.998Z</time></trkpt><trkpt lat="45.58707791440735" lon="10.127887730033388"><ele>155.0</ele><time>2026-04-16T16:19:54.998Z</time></trkpt><trkpt lat="45.587130133180516" lon="10.127800023516398"><ele>155.0</ele><time>2026-04-16T16:19:57.998Z</time></trkpt><trkpt lat="45.58716834243606" lon="10.127694909247122"><ele>155.0</ele><time>2026-04-16T16:20:00.998Z</time></trkpt><trkpt lat="45.58722021159725" lon="10.127597329551737"><ele>155.16666666666666</ele><time>2026-04-16T16:20:03.999Z</time></trkpt><trkpt lat="45.58725720561086" lon="10.127484989083717"><ele>155.33333333333331</ele><time>2026-04-16T16:20:06.999Z</time></trkpt><trkpt lat="45.58730027384236" lon="10.127381812452285"><ele>155.5</ele><time>2026-04-16T16:20:09.999Z</time></trkpt><trkpt lat="45.58732445012342" lon="10.12727512991823"><ele>155.66666666666666</ele><time>2026-04-16T16:20:12.999Z</time></trkpt><trkpt lat="45.58734636439985" lon="10.12716362978167"><ele>155.83333333333334</ele><time>2026-04-16T16:20:15.999Z</time></trkpt><trkpt lat="45.58735952137521" lon="10.127042329158254"><ele>156.0</ele><time>2026-04-16T16:20:18.999Z</time></trkpt><trkpt lat="45.58736811557479" lon="10.126922317237371"><ele>155.83333333333334</ele><time>2026-04-16T16:20:21.999Z</time></trkpt><trkpt lat="45.58738314168768" lon="10.126806019152614"><ele>155.66666666666666</ele><time>2026-04-16T16:20:24.999Z</time></trkpt><trkpt lat="45.58738201477486" lon="10.126679496451523"><ele>155.5</ele><time>2026-04-16T16:20:27.998Z</time></trkpt><trkpt lat="45.58738213475137" lon="10.1265577041555"><ele>155.33333333333331</ele><time>2026-04-16T16:20:30.998Z</time></trkpt><trkpt lat="45.587383528781906" lon="10.126444886424945"><ele>155.16666666666666</ele><time>2026-04-16T16:20:33.997Z</time></trkpt><trkpt lat="45.587381080766534" lon="10.126320530470613"><ele>155.0</ele><time>2026-04-16T16:20:36.998Z</time></trkpt><trkpt lat="45.58737618334132" lon="10.126199849170728"><ele>155.0</ele><time>2026-04-16T16:20:39.998Z</time></trkpt><trkpt lat="45.58737216551315" lon="10.126083432603792"><ele>155.0</ele><time>2026-04-16T16:20:42.998Z</time></trkpt><trkpt lat="45.587368589513076" lon="10.125956802706495"><ele>155.0</ele><time>2026-04-16T16:20:45.998Z</time></trkpt><trkpt lat="45.587374432332886" lon="10.125844695931827"><ele>155.0</ele><time>2026-04-16T16:20:48.998Z</time></trkpt><trkpt lat="45.58737727136897" lon="10.125729013875155"><ele>155.0</ele><time>2026-04-16T16:20:51.998Z</time></trkpt><trkpt lat="45.58738995591008" lon="10.125613782903763"><ele>155.0</ele><time>2026-04-16T16:20:54.998Z</time></trkpt><trkpt lat="45.587379624096876" lon="10.125482423605181"><ele>155.16666666666666</ele><time>2026-04-16T16:20:57.998Z</time></trkpt><trkpt lat="45.587385016603754" lon="10.125362204022387"><ele>155.33333333333331</ele><time>2026-04-16T16:21:00.998Z</time></trkpt><trkpt lat="45.58737787716532" lon="10.125235048444097"><ele>155.5</ele><time>2026-04-16T16:21:03.998Z</time></trkpt><trkpt lat="45.587386162065286" lon="10.125123765603123"><ele>155.66666666666666</ele><time>2026-04-16T16:21:06.998Z</time></trkpt><trkpt lat="45.58739268495691" lon="10.125011161265576"><ele>155.83333333333334</ele><time>2026-04-16T16:21:09.998Z</time></trkpt><trkpt lat="45.58739451308737" lon="10.124896088979344"><ele>156.0</ele><time>2026-04-16T16:21:12.998Z</time></trkpt><trkpt lat="45.58739611310483" lon="10.124782799051356"><ele>155.66666666666666</ele><time>2026-04-16T16:21:15.998Z</time></trkpt><trkpt lat="45.587408509936" lon="10.12467288273377"><ele>155.33333333333334</ele><time>2026-04-16T16:21:18.998Z</time></trkpt><trkpt lat="45.587407377906175" lon="10.124555294612883"><ele>155.0</ele><time>2026-04-16T16:21:21.998Z</time></trkpt><trkpt lat="45.58742157725165" lon="10.124444851409452"><ele>154.66666666666669</ele><time>2026-04-16T16:21:24.998Z</time></trkpt><trkpt lat="45.58743591920956" lon="10.124333038380767"><ele>154.33333333333334</ele><time>2026-04-16T16:21:27.998Z</time></trkpt><trkpt lat="45.58744724377927" lon="10.124226137905545"><ele>154.0</ele><time>2026-04-16T16:21:30.998Z</time></trkpt><trkpt lat="45.58746138629434" lon="10.124118046200367"><ele>154.5</ele><time>2026-04-16T16:21:33.998Z</time></trkpt><trkpt lat="45.5874797976566" lon="10.124009999609509"><ele>155.0</ele><time>2026-04-16T16:21:36.998Z</time></trkpt><trkpt lat="45.58752613189592" lon="10.1239171889544"><ele>155.5</ele><time>2026-04-16T16:21:39.998Z</time></trkpt><trkpt lat="45.58757929929401" lon="10.123832537086525"><ele>156.0</ele><time>2026-04-16T16:21:42.998Z</time></trkpt><trkpt lat="45.587641592978656" lon="10.123767547201062"><ele>156.5</ele><time>2026-04-16T16:21:45.998Z</time></trkpt><trkpt lat="45.587692101027066" lon="10.123693305909942"><ele>157.0</ele><time>2026-04-16T16:21:48.998Z</time></trkpt><trkpt lat="45.587755024876266" lon="10.123626598196033"><ele>157.0</ele><time>2026-04-16T16:21:51.998Z</time></trkpt><trkpt lat="45.58779995050311" lon="10.123534860883362"><ele>157.0</ele><time>2026-04-16T16:21:54.998Z</time></trkpt><trkpt lat="45.58785076477138" lon="10.123437574623857"><ele>157.0</ele><time>2026-04-16T16:21:58.998Z</time></trkpt><trkpt lat="45.587879485875575" lon="10.123343004965593"><ele>157.0</ele><time>2026-04-16T16:22:01.998Z</time></trkpt><trkpt lat="45.587904610921356" lon="10.123244005129594"><ele>157.0</ele><time>2026-04-16T16:22:04.998Z</time></trkpt><trkpt lat="45.587932808266466" lon="10.123138870936153"><ele>157.0</ele><time>2026-04-16T16:22:07.998Z</time></trkpt><trkpt lat="45.58794980556075" lon="10.123022279204152"><ele>157.0</ele><time>2026-04-16T16:22:10.998Z</time></trkpt><trkpt lat="45.58797177932859" lon="10.122911596410635"><ele>157.0</ele><time>2026-04-16T16:22:13.998Z</time></trkpt><trkpt lat="45.587966892062475" lon="10.122797531937604"><ele>157.0</ele><time>2026-04-16T16:22:16.998Z</time></trkpt><trkpt lat="45.58794452208316" lon="10.122674825256338"><ele>157.0</ele><time>2026-04-16T16:22:19.998Z</time></trkpt><trkpt lat="45.5879424520938" lon="10.122562708630278"><ele>157.0</ele><time>2026-04-16T16:22:22.998Z</time></trkpt><trkpt lat="45.5878977895189" lon="10.122458608912424"><ele>157.0</ele><time>2026-04-16T16:22:25.998Z</time></trkpt><trkpt lat="45.58784020135675" lon="10.12235390267998"><ele>157.33333333333334</ele><time>2026-04-16T16:22:28.999Z</time></trkpt><trkpt lat="45.58777968172761" lon="10.12226543731729"><ele>157.66666666666669</ele><time>2026-04-16T16:22:31.997Z</time></trkpt><trkpt lat="45.58771571921703" lon="10.122195450528682"><ele>158.0</ele><time>2026-04-16T16:22:34.997Z</time></trkpt><trkpt lat="45.58765904809004" lon="10.122109183963232"><ele>158.33333333333334</ele><time>2026-04-16T16:22:37.997Z</time></trkpt><trkpt lat="45.58761192738691" lon="10.122023198086106"><ele>158.66666666666666</ele><time>2026-04-16T16:22:40.997Z</time></trkpt><trkpt lat="45.58755531328643" lon="10.121936632360786"><ele>159.0</ele><time>2026-04-16T16:22:43.997Z</time></trkpt><trkpt lat="45.587539909564654" lon="10.121829563299386"><ele>159.0</ele><time>2026-04-16T16:22:46.997Z</time></trkpt><trkpt lat="45.58749458520779" lon="10.121722729543858"><ele>159.0</ele><time>2026-04-16T16:22:49.997Z</time></trkpt><trkpt lat="45.58747088213655" lon="10.121627606384735"><ele>159.0</ele><time>2026-04-16T16:22:52.997Z</time></trkpt><trkpt lat="45.587447469256226" lon="10.12151934153084"><ele>159.0</ele><time>2026-04-16T16:22:55.997Z</time></trkpt><trkpt lat="45.587456017146735" lon="10.121405163783132"><ele>159.0</ele><time>2026-04-16T16:22:58.997Z</time></trkpt><trkpt lat="45.58745668374664" lon="10.121285956697033"><ele>159.0</ele><time>2026-04-16T16:23:02.997Z</time></trkpt><trkpt lat="45.58745813368723" lon="10.121168529863763"><ele>159.0</ele><time>2026-04-16T16:23:05.997Z</time></trkpt><trkpt lat="45.58746379234053" lon="10.121050561876572"><ele>159.0</ele><time>2026-04-16T16:23:08.997Z</time></trkpt><trkpt lat="45.58747905917778" lon="10.120939010840711"><ele>159.0</ele><time>2026-04-16T16:23:11.997Z</time></trkpt><trkpt lat="45.58750372141086" lon="10.120828715958835"><ele>159.0</ele><time>2026-04-16T16:23:14.997Z</time></trkpt><trkpt lat="45.58751521818255" lon="10.120698746009966"><ele>159.0</ele><time>2026-04-16T16:23:17.997Z</time></trkpt><trkpt lat="45.587541623669324" lon="10.120583241949955"><ele>159.0</ele><time>2026-04-16T16:23:20.997Z</time></trkpt><trkpt lat="45.58759088025566" lon="10.120486057470174"><ele>159.0</ele><time>2026-04-16T16:23:23.998Z</time></trkpt><trkpt lat="45.58762313177836" lon="10.120377199494806"><ele>159.0</ele><time>2026-04-16T16:23:26.998Z</time></trkpt><trkpt lat="45.58767871977868" lon="10.120309860020262"><ele>159.0</ele><time>2026-04-16T16:23:29.998Z</time></trkpt><trkpt lat="45.58772654276917" lon="10.120235488595963"><ele>159.0</ele><time>2026-04-16T16:23:32.998Z</time></trkpt><trkpt lat="45.58777268063752" lon="10.120153365514216"><ele>159.0</ele><time>2026-04-16T16:23:35.998Z</time></trkpt><trkpt lat="45.58783007962047" lon="10.120068520819"><ele>159.0</ele><time>2026-04-16T16:23:38.998Z</time></trkpt><trkpt lat="45.58787795853933" lon="10.119968700729606"><ele>159.5</ele><time>2026-04-16T16:23:41.998Z</time></trkpt><trkpt lat="45.587928795041165" lon="10.11988836165973"><ele>160.0</ele><time>2026-04-16T16:23:44.998Z</time></trkpt><trkpt lat="45.587973320371574" lon="10.119787370078397"><ele>160.5</ele><time>2026-04-16T16:23:47.998Z</time></trkpt><trkpt lat="45.5880224931354" lon="10.119710533833986"><ele>161.0</ele><time>2026-04-16T16:23:50.998Z</time></trkpt><trkpt lat="45.5880556778529" lon="10.119588222721655"><ele>161.5</ele><time>2026-04-16T16:23:53.998Z</time></trkpt><trkpt lat="45.588090335716466" lon="10.119508508505467"><ele>162.0</ele><time>2026-04-16T16:23:55.998Z</time></trkpt><trkpt lat="45.588111241501" lon="10.119418557279422"><ele>162.0</ele><time>2026-04-16T16:23:57.998Z</time></trkpt><trkpt lat="45.588125266682205" lon="10.119323078627065"><ele>162.0</ele><time>2026-04-16T16:23:59.998Z</time></trkpt><trkpt lat="45.58815248021804" lon="10.11922717769989"><ele>162.0</ele><time>2026-04-16T16:24:01.998Z</time></trkpt><trkpt lat="45.5881738069494" lon="10.119118682820263"><ele>162.0</ele><time>2026-04-16T16:24:03.998Z</time></trkpt><trkpt lat="45.58821068222662" lon="10.11902159252324"><ele>162.0</ele><time>2026-04-16T16:24:05.998Z</time></trkpt><trkpt lat="45.588235496874894" lon="10.118934192092693"><ele>162.0</ele><time>2026-04-16T16:24:07.998Z</time></trkpt><trkpt lat="45.58825600353845" lon="10.118848272435892"><ele>162.0</ele><time>2026-04-16T16:24:09.998Z</time></trkpt><trkpt lat="45.588283331209844" lon="10.118765003315346"><ele>162.0</ele><time>2026-04-16T16:24:11.998Z</time></trkpt><trkpt lat="45.588313628597504" lon="10.118640820805071"><ele>162.0</ele><time>2026-04-16T16:24:14.998Z</time></trkpt><trkpt lat="45.588354286106465" lon="10.1185251120015"><ele>162.0</ele><time>2026-04-16T16:24:17.998Z</time></trkpt><trkpt lat="45.58838982729919" lon="10.118410381310106"><ele>162.0</ele><time>2026-04-16T16:24:20.998Z</time></trkpt><trkpt lat="45.58842449402309" lon="10.118309770078861"><ele>162.0</ele><time>2026-04-16T16:24:23.998Z</time></trkpt><trkpt lat="45.58843833317415" lon="10.118182585925759"><ele>162.0</ele><time>2026-04-16T16:24:26.998Z</time></trkpt><trkpt lat="45.588439955421485" lon="10.118067681584211"><ele>162.0</ele><time>2026-04-16T16:24:29.998Z</time></trkpt><trkpt lat="45.588454134216704" lon="10.117953571799152"><ele>162.0</ele><time>2026-04-16T16:24:32.998Z</time></trkpt><trkpt lat="45.58846336226266" lon="10.117839136879992"><ele>162.0</ele><time>2026-04-16T16:24:35.998Z</time></trkpt><trkpt lat="45.58847810780396" lon="10.117721571225376"><ele>162.0</ele><time>2026-04-16T16:24:38.997Z</time></trkpt><trkpt lat="45.58848675930436" lon="10.11760937107524"><ele>162.0</ele><time>2026-04-16T16:24:41.998Z</time></trkpt><trkpt lat="45.58849687229127" lon="10.117506026696544"><ele>162.0</ele><time>2026-04-16T16:24:44.997Z</time></trkpt><trkpt lat="45.588505553883365" lon="10.117399135516612"><ele>162.16666666666666</ele><time>2026-04-16T16:24:47.997Z</time></trkpt><trkpt lat="45.58851790497898" lon="10.11728897323907"><ele>162.33333333333334</ele><time>2026-04-16T16:24:50.997Z</time></trkpt><trkpt lat="45.588520160084784" lon="10.11717628403102"><ele>162.5</ele><time>2026-04-16T16:24:53.997Z</time></trkpt><trkpt lat="45.58853877220542" lon="10.117057756175717"><ele>162.66666666666669</ele><time>2026-04-16T16:24:56.997Z</time></trkpt><trkpt lat="45.58854088432332" lon="10.11694076393678"><ele>162.83333333333334</ele><time>2026-04-16T16:24:59.997Z</time></trkpt><trkpt lat="45.588549853784755" lon="10.116810811187637"><ele>163.0</ele><time>2026-04-16T16:25:02.997Z</time></trkpt><trkpt lat="45.588563829747635" lon="10.116696473991942"><ele>163.0</ele><time>2026-04-16T16:25:05.997Z</time></trkpt><trkpt lat="45.58857355016313" lon="10.116589325759985"><ele>163.0</ele><time>2026-04-16T16:25:08.997Z</time></trkpt><trkpt lat="45.58858087301487" lon="10.116483016981366"><ele>163.0</ele><time>2026-04-16T16:25:11.997Z</time></trkpt><trkpt lat="45.58859229325931" lon="10.11636660687909"><ele>163.0</ele><time>2026-04-16T16:25:14.997Z</time></trkpt><trkpt lat="45.588606767094525" lon="10.116261621627313"><ele>163.0</ele><time>2026-04-16T16:25:17.997Z</time></trkpt><trkpt lat="45.588603410467066" lon="10.116148522332503"><ele>163.0</ele><time>2026-04-16T16:25:20.997Z</time></trkpt><trkpt lat="45.588614657696446" lon="10.11603773759551"><ele>163.0</ele><time>2026-04-16T16:25:23.997Z</time></trkpt><trkpt lat="45.58860631615841" lon="10.115933668504667"><ele>163.0</ele><time>2026-04-16T16:25:26.997Z</time></trkpt><trkpt lat="45.588608770625356" lon="10.115819211771887"><ele>163.0</ele><time>2026-04-16T16:25:29.997Z</time></trkpt><trkpt lat="45.58861597109237" lon="10.115720749825405"><ele>163.0</ele><time>2026-04-16T16:25:32.997Z</time></trkpt><trkpt lat="45.58863954484818" lon="10.115617863569433"><ele>163.0</ele><time>2026-04-16T16:25:35.997Z</time></trkpt><trkpt lat="45.58863178231287" lon="10.11551502800975"><ele>163.0</ele><time>2026-04-16T16:25:38.997Z</time></trkpt><trkpt lat="45.58863284584274" lon="10.115404388975481"><ele>163.0</ele><time>2026-04-16T16:25:41.997Z</time></trkpt><trkpt lat="45.58864519160397" lon="10.115282952094939"><ele>163.0</ele><time>2026-04-16T16:25:44.997Z</time></trkpt><trkpt lat="45.58866146328715" lon="10.115173903857615"><ele>163.0</ele><time>2026-04-16T16:25:47.997Z</time></trkpt><trkpt lat="45.58867633602748" lon="10.115070804705551"><ele>163.0</ele><time>2026-04-16T16:25:50.997Z</time></trkpt><trkpt lat="45.58868659067708" lon="10.114961122172858"><ele>163.0</ele><time>2026-04-16T16:25:53.997Z</time></trkpt><trkpt lat="45.58868805457869" lon="10.114846797727465"><ele>163.0</ele><time>2026-04-16T16:25:56.997Z</time></trkpt><trkpt lat="45.58869814962588" lon="10.114742717777624"><ele>163.0</ele><time>2026-04-16T16:25:59.997Z</time></trkpt><trkpt lat="45.58870186554056" lon="10.11462613187241"><ele>163.16666666666669</ele><time>2026-04-16T16:26:02.997Z</time></trkpt><trkpt lat="45.58870546790633" lon="10.114507850161555"><ele>163.33333333333334</ele><time>2026-04-16T16:26:05.997Z</time></trkpt><trkpt lat="45.58870393085991" lon="10.114388688690461"><ele>163.5</ele><time>2026-04-16T16:26:08.997Z</time></trkpt><trkpt lat="45.58871172725529" lon="10.114276534514653"><ele>163.66666666666666</ele><time>2026-04-16T16:26:11.997Z</time></trkpt><trkpt lat="45.58874440702398" lon="10.11416458534647"><ele>163.83333333333331</ele><time>2026-04-16T16:26:14.997Z</time></trkpt><trkpt lat="45.588768079977285" lon="10.114042787105964"><ele>164.0</ele><time>2026-04-16T16:26:17.997Z</time></trkpt><trkpt lat="45.5887792595372" lon="10.113928916887303"><ele>164.16666666666666</ele><time>2026-04-16T16:26:20.997Z</time></trkpt><trkpt lat="45.58878436470077" lon="10.113837266981598"><ele>164.33333333333331</ele><time>2026-04-16T16:26:22.997Z</time></trkpt><trkpt lat="45.588792160708955" lon="10.113716424430919"><ele>164.5</ele><time>2026-04-16T16:26:25.998Z</time></trkpt><trkpt lat="45.58879318960183" lon="10.113594500397763"><ele>164.66666666666666</ele><time>2026-04-16T16:26:28.998Z</time></trkpt><trkpt lat="45.58879245802323" lon="10.11350429662459"><ele>164.83333333333334</ele><time>2026-04-16T16:26:30.998Z</time></trkpt><trkpt lat="45.58880005107465" lon="10.11338633481614"><ele>165.0</ele><time>2026-04-16T16:26:33.998Z</time></trkpt><trkpt lat="45.58880507942628" lon="10.113276938645164"><ele>165.16666666666666</ele><time>2026-04-16T16:26:36.998Z</time></trkpt><trkpt lat="45.58882912048069" lon="10.113171701890177"><ele>165.33333333333334</ele><time>2026-04-16T16:26:39.998Z</time></trkpt><trkpt lat="45.58883203376722" lon="10.113054315456404"><ele>165.5</ele><time>2026-04-16T16:26:42.998Z</time></trkpt><trkpt lat="45.58885479490804" lon="10.112949734131796"><ele>165.66666666666669</ele><time>2026-04-16T16:26:45.997Z</time></trkpt><trkpt lat="45.58886341128104" lon="10.112828867597027"><ele>165.83333333333334</ele><time>2026-04-16T16:26:48.997Z</time></trkpt><trkpt lat="45.588861786843324" lon="10.112699970453543"><ele>166.0</ele><time>2026-04-16T16:26:51.997Z</time></trkpt><trkpt lat="45.588867432924054" lon="10.112577044626011"><ele>166.0</ele><time>2026-04-16T16:26:54.997Z</time></trkpt><trkpt lat="45.58886933883094" lon="10.112447232042076"><ele>166.0</ele><time>2026-04-16T16:26:57.997Z</time></trkpt><trkpt lat="45.588882684043725" lon="10.11232185130064"><ele>166.0</ele><time>2026-04-16T16:27:00.997Z</time></trkpt><trkpt lat="45.588886211178306" lon="10.112228229153066"><ele>166.0</ele><time>2026-04-16T16:27:02.997Z</time></trkpt><trkpt lat="45.58887608952806" lon="10.112136115843226"><ele>166.0</ele><time>2026-04-16T16:27:04.997Z</time></trkpt><trkpt lat="45.588890580786945" lon="10.112013619002154"><ele>166.0</ele><time>2026-04-16T16:27:07.997Z</time></trkpt><trkpt lat="45.58890784167512" lon="10.111889047269285"><ele>166.66666666666669</ele><time>2026-04-16T16:27:10.997Z</time></trkpt><trkpt lat="45.58891136335147" lon="10.11177227881504"><ele>167.33333333333334</ele><time>2026-04-16T16:27:13.997Z</time></trkpt><trkpt lat="45.58892550515151" lon="10.111647940704806"><ele>168.0</ele><time>2026-04-16T16:27:16.997Z</time></trkpt><trkpt lat="45.58893798300891" lon="10.111558154304197"><ele>168.66666666666666</ele><time>2026-04-16T16:27:18.997Z</time></trkpt><trkpt lat="45.58895404787459" lon="10.111433928864137"><ele>169.33333333333331</ele><time>2026-04-16T16:27:21.997Z</time></trkpt><trkpt lat="45.588982910918986" lon="10.111353360798347"><ele>170.0</ele><time>2026-04-16T16:27:23.997Z</time></trkpt><trkpt lat="45.58900281524457" lon="10.111239552189627"><ele>170.0</ele><time>2026-04-16T16:27:26.997Z</time></trkpt><trkpt lat="45.589027697989266" lon="10.111132586172728"><ele>170.0</ele><time>2026-04-16T16:27:29.997Z</time></trkpt><trkpt lat="45.58905684930697" lon="10.111014466939931"><ele>170.0</ele><time>2026-04-16T16:27:32.997Z</time></trkpt><trkpt lat="45.58906105956264" lon="10.11091674460231"><ele>170.0</ele><time>2026-04-16T16:27:34.997Z</time></trkpt><trkpt lat="45.58905302922371" lon="10.110790723235928"><ele>170.0</ele><time>2026-04-16T16:27:37.997Z</time></trkpt><trkpt lat="45.58905689082378" lon="10.110697985700469"><ele>170.0</ele><time>2026-04-16T16:27:39.997Z</time></trkpt><trkpt lat="45.589060184680015" lon="10.11057181455531"><ele>169.16666666666666</ele><time>2026-04-16T16:27:42.997Z</time></trkpt><trkpt lat="45.589104171320045" lon="10.110472149411194"><ele>168.33333333333331</ele><time>2026-04-16T16:27:45.997Z</time></trkpt><trkpt lat="45.589139751683504" lon="10.11037223250004"><ele>167.5</ele><time>2026-04-16T16:27:48.997Z</time></trkpt><trkpt lat="45.589202535740185" lon="10.110302315625166"><ele>166.66666666666666</ele><time>2026-04-16T16:27:51.997Z</time></trkpt><trkpt lat="45.58927631329657" lon="10.110280471863577"><ele>165.83333333333334</ele><time>2026-04-16T16:27:54.997Z</time></trkpt><trkpt lat="45.5893721647957" lon="10.110265058425188"><ele>165.0</ele><time>2026-04-16T16:27:58.997Z</time></trkpt><trkpt lat="45.58944824558308" lon="10.110234847736654"><ele>165.42857142857144</ele><time>2026-04-16T16:28:01.997Z</time></trkpt><trkpt lat="45.589521379401376" lon="10.110221799173784"><ele>165.85714285714286</ele><time>2026-04-16T16:28:04.997Z</time></trkpt><trkpt lat="45.589598480781746" lon="10.110203314015214"><ele>166.28571428571428</ele><time>2026-04-16T16:28:07.997Z</time></trkpt><trkpt lat="45.589670296883504" lon="10.11019403017988"><ele>166.71428571428572</ele><time>2026-04-16T16:28:10.997Z</time></trkpt><trkpt lat="45.5897369452063" lon="10.110187632082118"><ele>167.14285714285714</ele><time>2026-04-16T16:28:13.997Z</time></trkpt><trkpt lat="45.58981649379392" lon="10.11019759266194"><ele>167.57142857142858</ele><time>2026-04-16T16:28:16.997Z</time></trkpt><trkpt lat="45.589890193297634" lon="10.110201204607794"><ele>168.0</ele><time>2026-04-16T16:28:19.997Z</time></trkpt><trkpt lat="45.58996402636328" lon="10.110202934453355"><ele>168.0</ele><time>2026-04-16T16:28:22.997Z</time></trkpt><trkpt lat="45.59004081745739" lon="10.110196365647864"><ele>168.0</ele><time>2026-04-16T16:28:25.997Z</time></trkpt><trkpt lat="45.59012013000842" lon="10.110184297217138"><ele>168.0</ele><time>2026-04-16T16:28:28.997Z</time></trkpt><trkpt lat="45.59020405608301" lon="10.1101915609759"><ele>168.0</ele><time>2026-04-16T16:28:31.997Z</time></trkpt><trkpt lat="45.59028146641511" lon="10.110151316284558"><ele>168.0</ele><time>2026-04-16T16:28:34.997Z</time></trkpt><trkpt lat="45.59036361849619" lon="10.110142850266682"><ele>168.0</ele><time>2026-04-16T16:28:37.997Z</time></trkpt><trkpt lat="45.59044267419898" lon="10.110143847931104"><ele>168.16666666666666</ele><time>2026-04-16T16:28:40.997Z</time></trkpt><trkpt lat="45.59050388359244" lon="10.110118367695382"><ele>168.33333333333334</ele><time>2026-04-16T16:28:42.997Z</time></trkpt><trkpt lat="45.59058133494116" lon="10.110116991825246"><ele>168.5</ele><time>2026-04-16T16:28:45.997Z</time></trkpt><trkpt lat="45.59065867039108" lon="10.110111547433114"><ele>168.66666666666669</ele><time>2026-04-16T16:28:48.997Z</time></trkpt><trkpt lat="45.59073789126483" lon="10.110090671151191"><ele>168.83333333333334</ele><time>2026-04-16T16:28:51.997Z</time></trkpt><trkpt lat="45.59081501717343" lon="10.11010752422006"><ele>169.0</ele><time>2026-04-16T16:28:54.997Z</time></trkpt><trkpt lat="45.59089698693262" lon="10.110105114234758"><ele>169.0</ele><time>2026-04-16T16:28:57.997Z</time></trkpt><trkpt lat="45.5909698428653" lon="10.110088064137054"><ele>169.0</ele><time>2026-04-16T16:29:00.997Z</time></trkpt><trkpt lat="45.591040499559796" lon="10.11008879269588"><ele>169.0</ele><time>2026-04-16T16:29:03.997Z</time></trkpt><trkpt lat="45.591118832254175" lon="10.110103660212474"><ele>169.0</ele><time>2026-04-16T16:29:06.997Z</time></trkpt><trkpt lat="45.59119449902657" lon="10.110095086289233"><ele>169.0</ele><time>2026-04-16T16:29:09.997Z</time></trkpt><trkpt lat="45.59125842375064" lon="10.11010619473794"><ele>169.0</ele><time>2026-04-16T16:29:11.997Z</time></trkpt><trkpt lat="45.591336417099875" lon="10.110111105108883"><ele>169.0</ele><time>2026-04-16T16:29:14.997Z</time></trkpt><trkpt lat="45.591422597235926" lon="10.11010729255092"><ele>169.14285714285714</ele><time>2026-04-16T16:29:17.997Z</time></trkpt><trkpt lat="45.5914993942835" lon="10.110127999497523"><ele>169.28571428571428</ele><time>2026-04-16T16:29:20.997Z</time></trkpt><trkpt lat="45.59157506735843" lon="10.110147476987322"><ele>169.42857142857144</ele><time>2026-04-16T16:29:23.997Z</time></trkpt><trkpt lat="45.59165394523574" lon="10.110161673410222"><ele>169.57142857142856</ele><time>2026-04-16T16:29:26.997Z</time></trkpt><trkpt lat="45.59172321389666" lon="10.110173779690452"><ele>169.7142857142857</ele><time>2026-04-16T16:29:29.997Z</time></trkpt><trkpt lat="45.59178286738782" lon="10.11020763984436"><ele>169.85714285714286</ele><time>2026-04-16T16:29:32.997Z</time></trkpt><trkpt lat="45.59183763552718" lon="10.110258003875915"><ele>170.0</ele><time>2026-04-16T16:29:35.997Z</time></trkpt><trkpt lat="45.59190827303563" lon="10.110296359609354"><ele>170.0</ele><time>2026-04-16T16:29:39.997Z</time></trkpt><trkpt lat="45.591989823476844" lon="10.11031013890713"><ele>170.0</ele><time>2026-04-16T16:29:43.997Z</time></trkpt><trkpt lat="45.59204931870981" lon="10.110360790132116"><ele>170.0</ele><time>2026-04-16T16:29:48.997Z</time></trkpt><trkpt lat="45.59211454098909" lon="10.110396868854087"><ele>170.0</ele><time>2026-04-16T16:29:54.997Z</time></trkpt><trkpt lat="45.59216889529389" lon="10.110460867056211"><ele>170.0</ele><time>2026-04-16T16:30:00.997Z</time></trkpt><trkpt lat="45.59222702902335" lon="10.110521749737792"><ele>170.0</ele><time>2026-04-16T16:30:05.997Z</time></trkpt><trkpt lat="45.59226958736912" lon="10.110592338803336"><ele>170.0</ele><time>2026-04-16T16:30:11.997Z</time></trkpt><trkpt lat="45.592339947199406" lon="10.110626441448948"><ele>170.0</ele><time>2026-04-16T16:30:16.997Z</time></trkpt><trkpt lat="45.59239576726129" lon="10.110687012328803"><ele>170.0</ele><time>2026-04-16T16:30:21.998Z</time></trkpt><trkpt lat="45.59247031832333" lon="10.110729212030027"><ele>170.0</ele><time>2026-04-16T16:30:26.998Z</time></trkpt><trkpt lat="45.59253872019107" lon="10.11076095116154"><ele>170.0</ele><time>2026-04-16T16:30:31.998Z</time></trkpt><trkpt lat="45.592613368912396" lon="10.110757509036826"><ele>170.0</ele><time>2026-04-16T16:30:37.998Z</time></trkpt><trkpt lat="45.592689521702674" lon="10.110772489339643"><ele>170.0</ele><time>2026-04-16T16:30:41.998Z</time></trkpt><trkpt lat="45.592754253107756" lon="10.11078226834131"><ele>170.0</ele><time>2026-04-16T16:30:45.998Z</time></trkpt><trkpt lat="45.59282269558528" lon="10.110811030895977"><ele>170.14285714285714</ele><time>2026-04-16T16:30:53.998Z</time></trkpt><trkpt lat="45.59289380697722" lon="10.110816706255875"><ele>170.28571428571428</ele><time>2026-04-16T16:30:58.996Z</time></trkpt><trkpt lat="45.592955877450365" lon="10.11084250780001"><ele>170.42857142857142</ele><time>2026-04-16T16:31:04.996Z</time></trkpt><trkpt lat="45.593038580645334" lon="10.1109102383816"><ele>170.57142857142856</ele><time>2026-04-16T16:31:10.996Z</time></trkpt><trkpt lat="45.59311284570745" lon="10.110903792186312"><ele>170.71428571428572</ele><time>2026-04-16T16:31:12.996Z</time></trkpt><trkpt lat="45.59317972044753" lon="10.11090021111893"><ele>170.85714285714283</ele><time>2026-04-16T16:31:14.996Z</time></trkpt><trkpt lat="45.593250105402134" lon="10.110894915694189"><ele>171.0</ele><time>2026-04-16T16:31:17.996Z</time></trkpt><trkpt lat="45.59331945918167" lon="10.110883593047715"><ele>171.0</ele><time>2026-04-16T16:31:20.996Z</time></trkpt><trkpt lat="45.593387301715055" lon="10.110905968687614"><ele>171.0</ele><time>2026-04-16T16:31:22.996Z</time></trkpt><trkpt lat="45.59347333594257" lon="10.110920333368409"><ele>171.0</ele><time>2026-04-16T16:31:25.996Z</time></trkpt><trkpt lat="45.59361135810571" lon="10.110908768376703"><ele>171.0</ele><time>2026-04-16T16:31:30.996Z</time></trkpt><trkpt lat="45.5936892477747" lon="10.110896180713297"><ele>171.0</ele><time>2026-04-16T16:31:33.996Z</time></trkpt><trkpt lat="45.59376895296466" lon="10.1108922934158"><ele>171.0</ele><time>2026-04-16T16:31:36.997Z</time></trkpt><trkpt lat="45.593865211477585" lon="10.110886163267292"><ele>171.0</ele><time>2026-04-16T16:31:40.997Z</time></trkpt><trkpt lat="45.593968812964356" lon="10.110868922852696"><ele>171.0</ele><time>2026-04-16T16:31:45.997Z</time></trkpt><trkpt lat="45.59403268140052" lon="10.110866485880026"><ele>171.0</ele><time>2026-04-16T16:31:48.997Z</time></trkpt><trkpt lat="45.59409953183777" lon="10.110836155023856"><ele>171.0</ele><time>2026-04-16T16:31:51.997Z</time></trkpt><trkpt lat="45.59418639073756" lon="10.110793583067286"><ele>171.0</ele><time>2026-04-16T16:31:55.997Z</time></trkpt><trkpt lat="45.59425887246124" lon="10.110766082851079"><ele>171.14285714285714</ele><time>2026-04-16T16:31:58.997Z</time></trkpt><trkpt lat="45.594327006910035" lon="10.110713879393378"><ele>171.28571428571428</ele><time>2026-04-16T16:32:02.997Z</time></trkpt><trkpt lat="45.59438301196851" lon="10.110653957924297"><ele>171.42857142857144</ele><time>2026-04-16T16:32:05.997Z</time></trkpt><trkpt lat="45.59443095376485" lon="10.110571540970778"><ele>171.57142857142856</ele><time>2026-04-16T16:32:08.997Z</time></trkpt><trkpt lat="45.59446217664646" lon="10.110482668527618"><ele>171.71428571428572</ele><time>2026-04-16T16:32:11.997Z</time></trkpt><trkpt lat="45.59451039614101" lon="10.11041167306942"><ele>171.85714285714286</ele><time>2026-04-16T16:32:14.997Z</time></trkpt><trkpt lat="45.594580723746866" lon="10.110369880387886"><ele>172.0</ele><time>2026-04-16T16:32:17.997Z</time></trkpt><trkpt lat="45.5946500436656" lon="10.11033888844838"><ele>172.0</ele><time>2026-04-16T16:32:20.997Z</time></trkpt><trkpt lat="45.59472916486018" lon="10.110308090300872"><ele>172.0</ele><time>2026-04-16T16:32:23.997Z</time></trkpt><trkpt lat="45.594804553093034" lon="10.110279393184626"><ele>172.0</ele><time>2026-04-16T16:32:26.997Z</time></trkpt><trkpt lat="45.59487938256874" lon="10.11025998717037"><ele>172.0</ele><time>2026-04-16T16:32:29.997Z</time></trkpt><trkpt lat="45.59494783915192" lon="10.110236027326843"><ele>172.0</ele><time>2026-04-16T16:32:32.997Z</time></trkpt><trkpt lat="45.595019301166694" lon="10.110183047346707"><ele>172.0</ele><time>2026-04-16T16:32:36.997Z</time></trkpt><trkpt lat="45.5950682137637" lon="10.110102649191639"><ele>172.00000000000003</ele><time>2026-04-16T16:32:39.997Z</time></trkpt><trkpt lat="45.595119207592674" lon="10.110025441037218"><ele>172.0</ele><time>2026-04-16T16:32:42.997Z</time></trkpt><trkpt lat="45.59515862859617" lon="10.109939834318345"><ele>172.0</ele><time>2026-04-16T16:32:45.997Z</time></trkpt><trkpt lat="45.595192028161605" lon="10.109837371976491"><ele>172.0</ele><time>2026-04-16T16:32:48.997Z</time></trkpt><trkpt lat="45.595232416674776" lon="10.109765863510738"><ele>172.0</ele><time>2026-04-16T16:32:51.997Z</time></trkpt><trkpt lat="45.59531567647654" lon="10.109752812781423"><ele>172.00000000000003</ele><time>2026-04-16T16:32:55.997Z</time></trkpt><trkpt lat="45.59537729833075" lon="10.109774166078918"><ele>172.0</ele><time>2026-04-16T16:32:58.997Z</time></trkpt><trkpt lat="45.59545245334265" lon="10.109764799681324"><ele>172.6</ele><time>2026-04-16T16:33:01.996Z</time></trkpt><trkpt lat="45.59551802703739" lon="10.109741218891322"><ele>173.2</ele><time>2026-04-16T16:33:04.996Z</time></trkpt><trkpt lat="45.59569510468782" lon="10.109747380887"><ele>173.8</ele><time>2026-04-16T16:33:12.996Z</time></trkpt><trkpt lat="45.59576014920233" lon="10.109743709838607"><ele>174.4</ele><time>2026-04-16T16:33:15.997Z</time></trkpt><trkpt lat="45.59582890823521" lon="10.109713526904045"><ele>175.0</ele><time>2026-04-16T16:33:18.997Z</time></trkpt><trkpt lat="45.5959087797966" lon="10.109726007857681"><ele>175.0</ele><time>2026-04-16T16:33:21.997Z</time></trkpt><trkpt lat="45.59599450738051" lon="10.109703840942334"><ele>175.0</ele><time>2026-04-16T16:33:24.997Z</time></trkpt><trkpt lat="45.59607118306431" lon="10.109695486829008"><ele>175.0</ele><time>2026-04-16T16:33:27.997Z</time></trkpt><trkpt lat="45.59614988354914" lon="10.109680721883558"><ele>175.0</ele><time>2026-04-16T16:33:30.997Z</time></trkpt><trkpt lat="45.59622665996071" lon="10.10968091348544"><ele>175.0</ele><time>2026-04-16T16:33:33.997Z</time></trkpt><trkpt lat="45.59630248336235" lon="10.109666769914428"><ele>175.0</ele><time>2026-04-16T16:33:36.997Z</time></trkpt><trkpt lat="45.59637147164532" lon="10.109662958340781"><ele>174.85714285714286</ele><time>2026-04-16T16:33:39.997Z</time></trkpt><trkpt lat="45.59644085160199" lon="10.10964897014722"><ele>174.71428571428572</ele><time>2026-04-16T16:33:42.997Z</time></trkpt><trkpt lat="45.59651424130707" lon="10.109638928787732"><ele>174.57142857142856</ele><time>2026-04-16T16:33:45.997Z</time></trkpt><trkpt lat="45.596583607505515" lon="10.109641641126935"><ele>174.42857142857144</ele><time>2026-04-16T16:33:48.997Z</time></trkpt><trkpt lat="45.59666313987494" lon="10.109672551629178"><ele>174.28571428571428</ele><time>2026-04-16T16:33:52.997Z</time></trkpt><trkpt lat="45.596733781735665" lon="10.109668017397494"><ele>174.14285714285714</ele><time>2026-04-16T16:33:55.997Z</time></trkpt><trkpt lat="45.596797120454404" lon="10.109639538644416"><ele>174.0</ele><time>2026-04-16T16:33:58.997Z</time></trkpt><trkpt lat="45.59686131346034" lon="10.109635451979232"><ele>174.0</ele><time>2026-04-16T16:34:01.997Z</time></trkpt><trkpt lat="45.59693991727874" lon="10.109609659390586"><ele>174.0</ele><time>2026-04-16T16:34:04.997Z</time></trkpt><trkpt lat="45.59702004957421" lon="10.109625555777345"><ele>174.0</ele><time>2026-04-16T16:34:07.997Z</time></trkpt><trkpt lat="45.59708544503682" lon="10.109644563961625"><ele>174.0</ele><time>2026-04-16T16:34:10.997Z</time></trkpt><trkpt lat="45.59715265517274" lon="10.109645433422354"><ele>174.0</ele><time>2026-04-16T16:34:13.997Z</time></trkpt><trkpt lat="45.59722000874741" lon="10.10962843457004"><ele>174.0</ele><time>2026-04-16T16:34:16.997Z</time></trkpt><trkpt lat="45.59729712856392" lon="10.109595879157498"><ele>174.0</ele><time>2026-04-16T16:34:19.997Z</time></trkpt><trkpt lat="45.597365829001355" lon="10.109602995656918"><ele>174.33333333333334</ele><time>2026-04-16T16:34:22.997Z</time></trkpt><trkpt lat="45.597382207010156" lon="10.109710962107922"><ele>174.66666666666666</ele><time>2026-04-16T16:34:25.997Z</time></trkpt><trkpt lat="45.59741860146551" lon="10.109810580703439"><ele>175.0</ele><time>2026-04-16T16:34:30.997Z</time></trkpt><trkpt lat="45.59745819433778" lon="10.109921198878371"><ele>175.33333333333331</ele><time>2026-04-16T16:34:33.997Z</time></trkpt><trkpt lat="45.59746183996482" lon="10.110034368664197"><ele>175.66666666666666</ele><time>2026-04-16T16:34:36.997Z</time></trkpt><trkpt lat="45.59747693606903" lon="10.110130403983964"><ele>176.0</ele><time>2026-04-16T16:34:39.997Z</time></trkpt><trkpt lat="45.59749327845452" lon="10.110217599208427"><ele>176.0</ele><time>2026-04-16T16:34:41.997Z</time></trkpt><trkpt lat="45.59750836563088" lon="10.110334498757691"><ele>176.0</ele><time>2026-04-16T16:34:45.997Z</time></trkpt><trkpt lat="45.597531592483776" lon="10.11044080048692"><ele>176.0</ele><time>2026-04-16T16:34:50.997Z</time></trkpt><trkpt lat="45.597554389492934" lon="10.110546698775408"><ele>176.0</ele><time>2026-04-16T16:34:52.997Z</time></trkpt><trkpt lat="45.59758368350785" lon="10.110671667798837"><ele>176.0</ele><time>2026-04-16T16:34:55.997Z</time></trkpt><trkpt lat="45.597579689517985" lon="10.110798268679417"><ele>176.0</ele><time>2026-04-16T16:34:58.997Z</time></trkpt><trkpt lat="45.59756721393467" lon="10.110905681258581"><ele>176.16666666666666</ele><time>2026-04-16T16:35:01.997Z</time></trkpt><trkpt lat="45.59754206303121" lon="10.111010261689287"><ele>176.33333333333331</ele><time>2026-04-16T16:35:04.997Z</time></trkpt><trkpt lat="45.597505323115136" lon="10.111112465219815"><ele>176.5</ele><time>2026-04-16T16:35:07.996Z</time></trkpt><trkpt lat="45.597466886485286" lon="10.111194809791213"><ele>176.66666666666666</ele><time>2026-04-16T16:35:10.996Z</time></trkpt><trkpt lat="45.597399348375035" lon="10.11128097304422"><ele>176.83333333333334</ele><time>2026-04-16T16:35:14.996Z</time></trkpt><trkpt lat="45.59735590555121" lon="10.111366793070781"><ele>177.0</ele><time>2026-04-16T16:35:17.996Z</time></trkpt><trkpt lat="45.59733567954917" lon="10.111483815777476"><ele>177.5</ele><time>2026-04-16T16:35:20.996Z</time></trkpt><trkpt lat="45.59730752845557" lon="10.111583872981873"><ele>178.0</ele><time>2026-04-16T16:35:23.996Z</time></trkpt><trkpt lat="45.597268788430355" lon="10.111666592651897"><ele>178.5</ele><time>2026-04-16T16:35:26.996Z</time></trkpt><trkpt lat="45.59726193745245" lon="10.111773204341347"><ele>179.0</ele><time>2026-04-16T16:35:29.996Z</time></trkpt><trkpt lat="45.597236974887906" lon="10.111871827297122"><ele>179.5</ele><time>2026-04-16T16:35:32.996Z</time></trkpt><trkpt lat="45.597167115141715" lon="10.11193832996009"><ele>180.0</ele><time>2026-04-16T16:35:35.996Z</time></trkpt><trkpt lat="45.59710682630064" lon="10.112014006590597"><ele>180.0</ele><time>2026-04-16T16:35:38.996Z</time></trkpt><trkpt lat="45.597050157557625" lon="10.11209242855107"><ele>180.0</ele><time>2026-04-16T16:35:41.996Z</time></trkpt><trkpt lat="45.59699405305712" lon="10.112174247112085"><ele>180.0</ele><time>2026-04-16T16:35:44.996Z</time></trkpt><trkpt lat="45.59694441514845" lon="10.112268156408462"><ele>180.0</ele><time>2026-04-16T16:35:47.996Z</time></trkpt><trkpt lat="45.596908519764" lon="10.112350369376815"><ele>180.0</ele><time>2026-04-16T16:35:50.996Z</time></trkpt><trkpt lat="45.596909344686246" lon="10.112474795257556"><ele>180.0</ele><time>2026-04-16T16:35:53.996Z</time></trkpt><trkpt lat="45.59689299778096" lon="10.112573714583684"><ele>179.0</ele><time>2026-04-16T16:35:56.996Z</time></trkpt><trkpt lat="45.596877615936215" lon="10.112672712323773"><ele>178.0</ele><time>2026-04-16T16:35:59.996Z</time></trkpt><trkpt lat="45.596845908688486" lon="10.11276024126996"><ele>177.0</ele><time>2026-04-16T16:36:02.996Z</time></trkpt><trkpt lat="45.596838735904186" lon="10.112866073178983"><ele>176.0</ele><time>2026-04-16T16:36:05.996Z</time></trkpt><trkpt lat="45.59682357708162" lon="10.112964484934576"><ele>175.0</ele><time>2026-04-16T16:36:08.996Z</time></trkpt><trkpt lat="45.59682067732886" lon="10.113064398176986"><ele>174.0</ele><time>2026-04-16T16:36:11.996Z</time></trkpt><trkpt lat="45.59681166277987" lon="10.113159311772364"><ele>173.0</ele><time>2026-04-16T16:36:14.996Z</time></trkpt><trkpt lat="45.59680546720068" lon="10.11325911027284"><ele>173.0</ele><time>2026-04-16T16:36:17.996Z</time></trkpt><trkpt lat="45.59679588387113" lon="10.113358299987969"><ele>173.0</ele><time>2026-04-16T16:36:20.996Z</time></trkpt><trkpt lat="45.59679053652435" lon="10.113455372727847"><ele>173.0</ele><time>2026-04-16T16:36:23.996Z</time></trkpt><trkpt lat="45.596772384687306" lon="10.11355493182691"><ele>173.0</ele><time>2026-04-16T16:36:26.996Z</time></trkpt><trkpt lat="45.596766232282654" lon="10.113652139958617"><ele>173.0</ele><time>2026-04-16T16:36:29.996Z</time></trkpt><trkpt lat="45.59677758850828" lon="10.113749055782163"><ele>173.0</ele><time>2026-04-16T16:36:32.996Z</time></trkpt><trkpt lat="45.59679343681177" lon="10.113844047135732"><ele>173.0</ele><time>2026-04-16T16:36:35.996Z</time></trkpt><trkpt lat="45.59680587852894" lon="10.113947591771314"><ele>173.0</ele><time>2026-04-16T16:36:38.996Z</time></trkpt><trkpt lat="45.59681069742332" lon="10.114042493833397"><ele>173.0</ele><time>2026-04-16T16:36:41.996Z</time></trkpt><trkpt lat="45.5968251899322" lon="10.114147605738426"><ele>173.0</ele><time>2026-04-16T16:36:44.996Z</time></trkpt><trkpt lat="45.59683955072825" lon="10.114255939246021"><ele>173.0</ele><time>2026-04-16T16:36:47.996Z</time></trkpt><trkpt lat="45.59684571260291" lon="10.114364025897974"><ele>173.0</ele><time>2026-04-16T16:36:50.996Z</time></trkpt><trkpt lat="45.596860478328466" lon="10.114458391880376"><ele>173.0</ele><time>2026-04-16T16:36:53.996Z</time></trkpt><trkpt lat="45.59687354944888" lon="10.11456541694489"><ele>173.0</ele><time>2026-04-16T16:36:56.996Z</time></trkpt><trkpt lat="45.596885256347115" lon="10.114659586706617"><ele>172.85714285714286</ele><time>2026-04-16T16:36:59.996Z</time></trkpt><trkpt lat="45.59689981545934" lon="10.114774581797938"><ele>172.71428571428572</ele><time>2026-04-16T16:37:02.996Z</time></trkpt><trkpt lat="45.596911407616766" lon="10.114886610667938"><ele>172.57142857142858</ele><time>2026-04-16T16:37:05.996Z</time></trkpt><trkpt lat="45.59693747064353" lon="10.114991813646139"><ele>172.42857142857144</ele><time>2026-04-16T16:37:08.996Z</time></trkpt><trkpt lat="45.59692987081696" lon="10.115091212165037"><ele>172.28571428571428</ele><time>2026-04-16T16:37:11.997Z</time></trkpt><trkpt lat="45.59693388342824" lon="10.115188923887304"><ele>172.14285714285717</ele><time>2026-04-16T16:37:14.997Z</time></trkpt><trkpt lat="45.59694332972775" lon="10.1152799984632"><ele>172.0</ele><time>2026-04-16T16:37:17.997Z</time></trkpt><trkpt lat="45.59697450220161" lon="10.115364267421365"><ele>172.0</ele><time>2026-04-16T16:37:20.996Z</time></trkpt><trkpt lat="45.596963930197184" lon="10.115475154864173"><ele>172.0</ele><time>2026-04-16T16:37:23.996Z</time></trkpt><trkpt lat="45.59697212858853" lon="10.115574404776535"><ele>172.0</ele><time>2026-04-16T16:37:26.996Z</time></trkpt><trkpt lat="45.5969975348976" lon="10.115673612781693"><ele>172.0</ele><time>2026-04-16T16:37:29.996Z</time></trkpt><trkpt lat="45.59701447023297" lon="10.115762727354255"><ele>172.0</ele><time>2026-04-16T16:37:32.996Z</time></trkpt><trkpt lat="45.59704482390724" lon="10.115877573611858"><ele>172.0</ele><time>2026-04-16T16:37:35.996Z</time></trkpt><trkpt lat="45.59706023422009" lon="10.115988552387906"><ele>172.00000000000003</ele><time>2026-04-16T16:37:38.996Z</time></trkpt><trkpt lat="45.59706602060052" lon="10.116099680061867"><ele>172.0</ele><time>2026-04-16T16:37:41.996Z</time></trkpt><trkpt lat="45.597067265469" lon="10.116202961321877"><ele>172.0</ele><time>2026-04-16T16:37:44.996Z</time></trkpt><trkpt lat="45.59708601199072" lon="10.116303154531519"><ele>172.0</ele><time>2026-04-16T16:37:47.996Z</time></trkpt><trkpt lat="45.59709531183032" lon="10.1164074934883"><ele>172.0</ele><time>2026-04-16T16:37:50.996Z</time></trkpt><trkpt lat="45.59710629587897" lon="10.116513151583995"><ele>172.00000000000003</ele><time>2026-04-16T16:37:53.996Z</time></trkpt><trkpt lat="45.5971154784596" lon="10.116610086654614"><ele>172.0</ele><time>2026-04-16T16:37:56.996Z</time></trkpt><trkpt lat="45.597124654581535" lon="10.116705427070736"><ele>171.83333333333334</ele><time>2026-04-16T16:37:59.996Z</time></trkpt><trkpt lat="45.597122993828265" lon="10.116806363852128"><ele>171.66666666666669</ele><time>2026-04-16T16:38:02.996Z</time></trkpt><trkpt lat="45.59711564801044" lon="10.11690872034293"><ele>171.5</ele><time>2026-04-16T16:38:05.996Z</time></trkpt><trkpt lat="45.59709309360964" lon="10.117029026470794"><ele>171.33333333333334</ele><time>2026-04-16T16:38:08.996Z</time></trkpt><trkpt lat="45.59709353096383" lon="10.117145236032478"><ele>171.16666666666666</ele><time>2026-04-16T16:38:11.996Z</time></trkpt><trkpt lat="45.59707637954617" lon="10.11725440713565"><ele>171.0</ele><time>2026-04-16T16:38:14.996Z</time></trkpt><trkpt lat="45.597062189389355" lon="10.117357142586869"><ele>170.85714285714283</ele><time>2026-04-16T16:38:17.996Z</time></trkpt><trkpt lat="45.59706839271352" lon="10.117466034906135"><ele>170.71428571428572</ele><time>2026-04-16T16:38:20.996Z</time></trkpt><trkpt lat="45.59706576766029" lon="10.117570722060794"><ele>170.57142857142856</ele><time>2026-04-16T16:38:23.996Z</time></trkpt><trkpt lat="45.59706729458521" lon="10.117673383662687"><ele>170.42857142857142</ele><time>2026-04-16T16:38:26.996Z</time></trkpt><trkpt lat="45.597061666115536" lon="10.117785824249443"><ele>170.28571428571428</ele><time>2026-04-16T16:38:29.996Z</time></trkpt><trkpt lat="45.59704348649141" lon="10.117880389604526"><ele>170.14285714285714</ele><time>2026-04-16T16:38:32.996Z</time></trkpt><trkpt lat="45.59704126375026" lon="10.117993516731852"><ele>170.0</ele><time>2026-04-16T16:38:35.996Z</time></trkpt><trkpt lat="45.597033230014794" lon="10.118090410526117"><ele>170.0</ele><time>2026-04-16T16:38:38.996Z</time></trkpt><trkpt lat="45.597015410078534" lon="10.11819272698297"><ele>170.0</ele><time>2026-04-16T16:38:41.996Z</time></trkpt><trkpt lat="45.597003048237866" lon="10.118301368892526"><ele>170.0</ele><time>2026-04-16T16:38:44.997Z</time></trkpt><trkpt lat="45.596997297923316" lon="10.11840129993708"><ele>170.0</ele><time>2026-04-16T16:38:47.997Z</time></trkpt><trkpt lat="45.59697511916509" lon="10.118496980717776"><ele>170.0</ele><time>2026-04-16T16:38:50.997Z</time></trkpt><trkpt lat="45.59695998825109" lon="10.118600120687823"><ele>170.0</ele><time>2026-04-16T16:38:53.997Z</time></trkpt><trkpt lat="45.59694987027381" lon="10.118693963862423"><ele>170.0</ele><time>2026-04-16T16:38:56.997Z</time></trkpt><trkpt lat="45.59694970777139" lon="10.118824716593867"><ele>169.85714285714286</ele><time>2026-04-16T16:38:59.997Z</time></trkpt><trkpt lat="45.596949947668314" lon="10.118930766612854"><ele>169.7142857142857</ele><time>2026-04-16T16:39:02.997Z</time></trkpt><trkpt lat="45.596925643715316" lon="10.119017871428328"><ele>169.57142857142856</ele><time>2026-04-16T16:39:05.997Z</time></trkpt><trkpt lat="45.59692099825755" lon="10.119117129246115"><ele>169.42857142857144</ele><time>2026-04-16T16:39:08.997Z</time></trkpt><trkpt lat="45.596917242492424" lon="10.119222564812919"><ele>169.28571428571428</ele><time>2026-04-16T16:39:11.997Z</time></trkpt><trkpt lat="45.5969089616948" lon="10.119335547556183"><ele>169.14285714285714</ele><time>2026-04-16T16:39:14.997Z</time></trkpt><trkpt lat="45.59689934394925" lon="10.119438260752787"><ele>169.0</ele><time>2026-04-16T16:39:17.997Z</time></trkpt><trkpt lat="45.596891940928735" lon="10.11953224653664"><ele>169.0</ele><time>2026-04-16T16:39:20.996Z</time></trkpt><trkpt lat="45.596880998730725" lon="10.119643946931618"><ele>169.0</ele><time>2026-04-16T16:39:24.997Z</time></trkpt><trkpt lat="45.59688245655524" lon="10.11974282070983"><ele>169.0</ele><time>2026-04-16T16:39:27.996Z</time></trkpt><trkpt lat="45.59688153881675" lon="10.119851253428367"><ele>169.0</ele><time>2026-04-16T16:39:30.996Z</time></trkpt><trkpt lat="45.59687942862849" lon="10.119952945827245"><ele>169.0</ele><time>2026-04-16T16:39:33.996Z</time></trkpt><trkpt lat="45.59686781705266" lon="10.12005729620716"><ele>169.0</ele><time>2026-04-16T16:39:36.996Z</time></trkpt><trkpt lat="45.59687538549049" lon="10.120151733382702"><ele>169.0</ele><time>2026-04-16T16:39:39.996Z</time></trkpt><trkpt lat="45.59686208427667" lon="10.120254866040366"><ele>168.57142857142858</ele><time>2026-04-16T16:39:42.996Z</time></trkpt><trkpt lat="45.59685019152757" lon="10.12034729562739"><ele>168.14285714285714</ele><time>2026-04-16T16:39:45.996Z</time></trkpt><trkpt lat="45.596842450878114" lon="10.120461581590687"><ele>167.71428571428572</ele><time>2026-04-16T16:39:49.996Z</time></trkpt><trkpt lat="45.596836280408425" lon="10.120565081313686"><ele>167.28571428571428</ele><time>2026-04-16T16:39:52.996Z</time></trkpt><trkpt lat="45.59683492998923" lon="10.120682569685211"><ele>166.85714285714286</ele><time>2026-04-16T16:39:56.996Z</time></trkpt><trkpt lat="45.59682076495975" lon="10.120777559167049"><ele>166.42857142857142</ele><time>2026-04-16T16:39:59.997Z</time></trkpt><trkpt lat="45.59681595179833" lon="10.120885638304806"><ele>166.0</ele><time>2026-04-16T16:40:02.997Z</time></trkpt><trkpt lat="45.59681183578491" lon="10.120983584930402"><ele>165.83333333333334</ele><time>2026-04-16T16:40:05.997Z</time></trkpt><trkpt lat="45.596796871700136" lon="10.121102636163375"><ele>165.66666666666669</ele><time>2026-04-16T16:40:08.997Z</time></trkpt><trkpt lat="45.596803327781885" lon="10.121226131441801"><ele>165.5</ele><time>2026-04-16T16:40:11.997Z</time></trkpt><trkpt lat="45.596799776435745" lon="10.121336038376029"><ele>165.33333333333334</ele><time>2026-04-16T16:40:14.997Z</time></trkpt><trkpt lat="45.596783481000365" lon="10.121440537531289"><ele>165.16666666666666</ele><time>2026-04-16T16:40:17.997Z</time></trkpt><trkpt lat="45.596775946564975" lon="10.121542845534993"><ele>165.0</ele><time>2026-04-16T16:40:20.997Z</time></trkpt><trkpt lat="45.59676106496151" lon="10.121647743986957"><ele>165.0</ele><time>2026-04-16T16:40:23.997Z</time></trkpt><trkpt lat="45.59673271179225" lon="10.121759883557115"><ele>165.0</ele><time>2026-04-16T16:40:27.997Z</time></trkpt><trkpt lat="45.596705467855614" lon="10.121867049381695"><ele>165.0</ele><time>2026-04-16T16:40:30.997Z</time></trkpt><trkpt lat="45.59667689003453" lon="10.121968643880237"><ele>165.0</ele><time>2026-04-16T16:40:33.997Z</time></trkpt><trkpt lat="45.59664864016292" lon="10.122063084742871"><ele>165.0</ele><time>2026-04-16T16:40:36.997Z</time></trkpt><trkpt lat="45.596615637975866" lon="10.12214864244449"><ele>165.0</ele><time>2026-04-16T16:40:39.997Z</time></trkpt><trkpt lat="45.596615291474194" lon="10.122259716375652"><ele>165.0</ele><time>2026-04-16T16:40:42.997Z</time></trkpt><trkpt lat="45.5966161916312" lon="10.122361386412244"><ele>165.0</ele><time>2026-04-16T16:40:45.997Z</time></trkpt><trkpt lat="45.59660909962701" lon="10.122465054236775"><ele>165.0</ele><time>2026-04-16T16:40:48.997Z</time></trkpt><trkpt lat="45.596586484407126" lon="10.122564532131507"><ele>165.0</ele><time>2026-04-16T16:40:51.997Z</time></trkpt><trkpt lat="45.59657023778071" lon="10.122669642397527"><ele>165.0</ele><time>2026-04-16T16:40:54.997Z</time></trkpt><trkpt lat="45.596583031621755" lon="10.122782416472093"><ele>165.0</ele><time>2026-04-16T16:40:57.997Z</time></trkpt><trkpt lat="45.59660810374059" lon="10.12288879531604"><ele>165.16666666666666</ele><time>2026-04-16T16:41:00.997Z</time></trkpt><trkpt lat="45.59659091881731" lon="10.12300748087485"><ele>165.33333333333334</ele><time>2026-04-16T16:41:03.997Z</time></trkpt><trkpt lat="45.59658182341473" lon="10.123107932180385"><ele>165.5</ele><time>2026-04-16T16:41:08.997Z</time></trkpt><trkpt lat="45.5965909750479" lon="10.123227364532967"><ele>165.66666666666669</ele><time>2026-04-16T16:41:12.997Z</time></trkpt><trkpt lat="45.59659277451639" lon="10.123354881630595"><ele>165.83333333333334</ele><time>2026-04-16T16:41:15.997Z</time></trkpt><trkpt lat="45.59658603915226" lon="10.123467922635179"><ele>166.0</ele><time>2026-04-16T16:41:18.997Z</time></trkpt><trkpt lat="45.59657479597929" lon="10.123563967597986"><ele>166.33333333333334</ele><time>2026-04-16T16:41:22.997Z</time></trkpt><trkpt lat="45.5965645251281" lon="10.123658883188938"><ele>166.66666666666669</ele><time>2026-04-16T16:41:26.996Z</time></trkpt><trkpt lat="45.596534861228555" lon="10.123751447963153"><ele>167.0</ele><time>2026-04-16T16:41:31.996Z</time></trkpt><trkpt lat="45.596543873637884" lon="10.123874799618923"><ele>167.33333333333334</ele><time>2026-04-16T16:41:34.996Z</time></trkpt><trkpt lat="45.59655515567482" lon="10.124011512776878"><ele>167.66666666666666</ele><time>2026-04-16T16:41:37.996Z</time></trkpt><trkpt lat="45.59657751781325" lon="10.12411265180674"><ele>168.0</ele><time>2026-04-16T16:41:40.996Z</time></trkpt><trkpt lat="45.596587525992504" lon="10.124204294343391"><ele>168.0</ele><time>2026-04-16T16:41:43.996Z</time></trkpt><trkpt lat="45.59660722661488" lon="10.124337699231768"><ele>168.0</ele><time>2026-04-16T16:41:48.996Z</time></trkpt><trkpt lat="45.59662963930354" lon="10.124467747462198"><ele>168.0</ele><time>2026-04-16T16:41:51.996Z</time></trkpt><trkpt lat="45.5966306439999" lon="10.124594785034827"><ele>168.0</ele><time>2026-04-16T16:41:54.996Z</time></trkpt><trkpt lat="45.59663875804185" lon="10.12470199634584"><ele>168.0</ele><time>2026-04-16T16:41:57.996Z</time></trkpt><trkpt lat="45.59665890598335" lon="10.124813327905736"><ele>168.0</ele><time>2026-04-16T16:42:00.996Z</time></trkpt><trkpt lat="45.59659824189715" lon="10.12488632945842"><ele>168.0</ele><time>2026-04-16T16:42:03.996Z</time></trkpt><trkpt lat="45.5965441973969" lon="10.124974588209723"><ele>168.0</ele><time>2026-04-16T16:42:06.996Z</time></trkpt><trkpt lat="45.596529587049076" lon="10.125085771090433"><ele>168.0</ele><time>2026-04-16T16:42:09.996Z</time></trkpt><trkpt lat="45.59653324163873" lon="10.125193838834047"><ele>168.0</ele><time>2026-04-16T16:42:12.996Z</time></trkpt><trkpt lat="45.596536288991416" lon="10.125302076889477"><ele>168.0</ele><time>2026-04-16T16:42:15.996Z</time></trkpt><trkpt lat="45.596542657105836" lon="10.12541782264571"><ele>168.0</ele><time>2026-04-16T16:42:18.996Z</time></trkpt><trkpt lat="45.59655127212236" lon="10.125533181284462"><ele>168.0</ele><time>2026-04-16T16:42:21.996Z</time></trkpt><trkpt lat="45.59654233934126" lon="10.1256294421965"><ele>168.0</ele><time>2026-04-16T16:42:24.996Z</time></trkpt><trkpt lat="45.596538707914576" lon="10.12574223380694"><ele>168.0</ele><time>2026-04-16T16:42:27.997Z</time></trkpt><trkpt lat="45.59652574767925" lon="10.125848225432717"><ele>168.0</ele><time>2026-04-16T16:42:30.997Z</time></trkpt><trkpt lat="45.596520461625765" lon="10.1259500638417"><ele>168.0</ele><time>2026-04-16T16:42:33.997Z</time></trkpt><trkpt lat="45.59650604029756" lon="10.126046240948295"><ele>168.0</ele><time>2026-04-16T16:42:36.997Z</time></trkpt><trkpt lat="45.59649652040643" lon="10.126148979447809"><ele>168.0</ele><time>2026-04-16T16:42:39.997Z</time></trkpt><trkpt lat="45.5965149959228" lon="10.126249175693557"><ele>168.0</ele><time>2026-04-16T16:42:42.997Z</time></trkpt><trkpt lat="45.59651820214353" lon="10.126351761053904"><ele>168.0</ele><time>2026-04-16T16:42:45.997Z</time></trkpt><trkpt lat="45.596521350848526" lon="10.12645703532787"><ele>168.0</ele><time>2026-04-16T16:42:48.997Z</time></trkpt><trkpt lat="45.596531796340535" lon="10.126563243489198"><ele>168.0</ele><time>2026-04-16T16:42:51.996Z</time></trkpt><trkpt lat="45.59651758956988" lon="10.126668107791781"><ele>168.0</ele><time>2026-04-16T16:42:54.996Z</time></trkpt><trkpt lat="45.5965255789035" lon="10.126769686954903"><ele>168.0</ele><time>2026-04-16T16:42:57.995Z</time></trkpt><trkpt lat="45.59652431043683" lon="10.126877240005971"><ele>168.0</ele><time>2026-04-16T16:43:00.995Z</time></trkpt><trkpt lat="45.59650244361856" lon="10.126989204673466"><ele>167.5</ele><time>2026-04-16T16:43:03.995Z</time></trkpt><trkpt lat="45.59651086098184" lon="10.12708962611386"><ele>167.0</ele><time>2026-04-16T16:43:06.995Z</time></trkpt><trkpt lat="45.59648767033166" lon="10.127207414853261"><ele>166.5</ele><time>2026-04-16T16:43:10.994Z</time></trkpt><trkpt lat="45.59649668667563" lon="10.127316163401606"><ele>166.0</ele><time>2026-04-16T16:43:13.994Z</time></trkpt><trkpt lat="45.59650224427353" lon="10.127421569992984"><ele>165.5</ele><time>2026-04-16T16:43:16.994Z</time></trkpt><trkpt lat="45.59651133627528" lon="10.127522380579874"><ele>165.0</ele><time>2026-04-16T16:43:19.994Z</time></trkpt><trkpt lat="45.59651387651526" lon="10.12762710854591"><ele>164.71428571428572</ele><time>2026-04-16T16:43:22.994Z</time></trkpt><trkpt lat="45.59652041158285" lon="10.127730534755816"><ele>164.42857142857144</ele><time>2026-04-16T16:43:25.994Z</time></trkpt><trkpt lat="45.59653164350128" lon="10.127828247237181"><ele>164.14285714285717</ele><time>2026-04-16T16:43:28.994Z</time></trkpt><trkpt lat="45.59655605390139" lon="10.127945826650407"><ele>163.85714285714286</ele><time>2026-04-16T16:43:32.993Z</time></trkpt><trkpt lat="45.59657554578611" lon="10.128059017021494"><ele>163.57142857142856</ele><time>2026-04-16T16:43:36.993Z</time></trkpt><trkpt lat="45.596588054342696" lon="10.128159166721183"><ele>163.2857142857143</ele><time>2026-04-16T16:43:39.993Z</time></trkpt><trkpt lat="45.59660662821314" lon="10.128250458628944"><ele>163.0</ele><time>2026-04-16T16:43:42.993Z</time></trkpt><trkpt lat="45.596617432541755" lon="10.128346038278151"><ele>162.71428571428572</ele><time>2026-04-16T16:43:45.993Z</time></trkpt><trkpt lat="45.59662566247157" lon="10.128441778237482"><ele>162.42857142857142</ele><time>2026-04-16T16:43:48.993Z</time></trkpt><trkpt lat="45.59663886459514" lon="10.128540339481988"><ele>162.14285714285714</ele><time>2026-04-16T16:43:51.993Z</time></trkpt><trkpt lat="45.596657242002024" lon="10.128626502703193"><ele>161.85714285714286</ele><time>2026-04-16T16:43:54.993Z</time></trkpt><trkpt lat="45.596668501585015" lon="10.12872550574945"><ele>161.57142857142856</ele><time>2026-04-16T16:43:57.993Z</time></trkpt><trkpt lat="45.59668106635608" lon="10.128835897885343"><ele>161.28571428571428</ele><time>2026-04-16T16:44:01.993Z</time></trkpt><trkpt lat="45.596700355617614" lon="10.128935120081303"><ele>161.0</ele><time>2026-04-16T16:44:04.993Z</time></trkpt><trkpt lat="45.59670273531406" lon="10.129027601808279"><ele>161.28571428571428</ele><time>2026-04-16T16:44:07.993Z</time></trkpt><trkpt lat="45.59673718306241" lon="10.129110100002762"><ele>161.57142857142856</ele><time>2026-04-16T16:44:10.993Z</time></trkpt><trkpt lat="45.596767535790924" lon="10.129201166357616"><ele>161.85714285714286</ele><time>2026-04-16T16:44:13.993Z</time></trkpt><trkpt lat="45.596792688651774" lon="10.129290982849318"><ele>162.14285714285714</ele><time>2026-04-16T16:44:16.993Z</time></trkpt><trkpt lat="45.59681270225426" lon="10.129381396147847"><ele>162.42857142857142</ele><time>2026-04-16T16:44:19.993Z</time></trkpt><trkpt lat="45.59682563726038" lon="10.129471245454035"><ele>162.71428571428572</ele><time>2026-04-16T16:44:22.993Z</time></trkpt><trkpt lat="45.59681970637929" lon="10.129590344987403"><ele>163.0</ele><time>2026-04-16T16:44:26.993Z</time></trkpt><trkpt lat="45.59680644042352" lon="10.129688906282144"><ele>163.0</ele><time>2026-04-16T16:44:29.993Z</time></trkpt><trkpt lat="45.59679758051862" lon="10.129791504046407"><ele>163.0</ele><time>2026-04-16T16:44:32.993Z</time></trkpt><trkpt lat="45.59680034814008" lon="10.129882792152873"><ele>163.0</ele><time>2026-04-16T16:44:35.993Z</time></trkpt><trkpt lat="45.59680079519598" lon="10.130006070294646"><ele>163.0</ele><time>2026-04-16T16:44:39.993Z</time></trkpt><trkpt lat="45.59682095823631" lon="10.130117535789052"><ele>163.0</ele><time>2026-04-16T16:44:43.993Z</time></trkpt><trkpt lat="45.596811967905104" lon="10.130220740319732"><ele>163.0</ele><time>2026-04-16T16:44:46.993Z</time></trkpt><trkpt lat="45.59681385560147" lon="10.130326582414728"><ele>163.0</ele><time>2026-04-16T16:44:49.993Z</time></trkpt><trkpt lat="45.59681633180112" lon="10.130428486760666"><ele>163.0</ele><time>2026-04-16T16:44:52.993Z</time></trkpt><trkpt lat="45.59681035212143" lon="10.130532114574722"><ele>163.0</ele><time>2026-04-16T16:44:55.993Z</time></trkpt><trkpt lat="45.596802198625994" lon="10.130638235161825"><ele>163.0</ele><time>2026-04-16T16:44:58.993Z</time></trkpt><trkpt lat="45.59679963933913" lon="10.130737287000303"><ele>163.0</ele><time>2026-04-16T16:45:01.993Z</time></trkpt><trkpt lat="45.59681425528155" lon="10.13083646362109"><ele>163.0</ele><time>2026-04-16T16:45:04.993Z</time></trkpt><trkpt lat="45.596818945161786" lon="10.130936072064664"><ele>163.0</ele><time>2026-04-16T16:45:07.993Z</time></trkpt><trkpt lat="45.59681661790765" lon="10.131036226725575"><ele>163.16666666666669</ele><time>2026-04-16T16:45:10.993Z</time></trkpt><trkpt lat="45.596793459611554" lon="10.131150073828902"><ele>163.33333333333334</ele><time>2026-04-16T16:45:13.993Z</time></trkpt><trkpt lat="45.596750630066154" lon="10.13125026683942"><ele>163.5</ele><time>2026-04-16T16:45:16.993Z</time></trkpt><trkpt lat="45.59672086335283" lon="10.131352526449275"><ele>163.66666666666666</ele><time>2026-04-16T16:45:19.993Z</time></trkpt><trkpt lat="45.59669644865081" lon="10.13146604442599"><ele>163.83333333333331</ele><time>2026-04-16T16:45:22.994Z</time></trkpt><trkpt lat="45.596666351513626" lon="10.131550822772743"><ele>164.0</ele><time>2026-04-16T16:45:25.994Z</time></trkpt><trkpt lat="45.59664568616145" lon="10.131658028766333"><ele>164.42857142857142</ele><time>2026-04-16T16:45:28.994Z</time></trkpt><trkpt lat="45.59664794223795" lon="10.131763678887587"><ele>164.85714285714286</ele><time>2026-04-16T16:45:31.994Z</time></trkpt><trkpt lat="45.596597749980404" lon="10.131837548749072"><ele>165.28571428571428</ele><time>2026-04-16T16:45:35.994Z</time></trkpt><trkpt lat="45.59656264738391" lon="10.131932188317164"><ele>165.71428571428572</ele><time>2026-04-16T16:45:38.992Z</time></trkpt><trkpt lat="45.59653138626829" lon="10.132033867863493"><ele>166.14285714285714</ele><time>2026-04-16T16:45:41.993Z</time></trkpt><trkpt lat="45.596479477930664" lon="10.132107806407317"><ele>166.57142857142856</ele><time>2026-04-16T16:45:44.993Z</time></trkpt><trkpt lat="45.59641122013082" lon="10.13215962706166"><ele>167.0</ele><time>2026-04-16T16:45:47.992Z</time></trkpt><trkpt lat="45.59634560062866" lon="10.132129064893062"><ele>167.0</ele><time>2026-04-16T16:45:50.992Z</time></trkpt><trkpt lat="45.596277421119375" lon="10.13206834767457"><ele>167.0</ele><time>2026-04-16T16:45:53.992Z</time></trkpt><trkpt lat="45.59621074294907" lon="10.13204103095582"><ele>167.0</ele><time>2026-04-16T16:45:57.993Z</time></trkpt><trkpt lat="45.59615100185342" lon="10.13197449853745"><ele>167.0</ele><time>2026-04-16T16:46:00.993Z</time></trkpt><trkpt lat="45.59609263449981" lon="10.131936564969175"><ele>167.0</ele><time>2026-04-16T16:46:03.993Z</time></trkpt><trkpt lat="45.59602268450043" lon="10.131888715704022"><ele>167.0</ele><time>2026-04-16T16:46:06.993Z</time></trkpt><trkpt lat="45.59595439992956" lon="10.131823727228566"><ele>167.0</ele><time>2026-04-16T16:46:09.993Z</time></trkpt><trkpt lat="45.59588257907973" lon="10.131765386017143"><ele>166.66666666666666</ele><time>2026-04-16T16:46:12.993Z</time></trkpt><trkpt lat="45.5958147846798" lon="10.13170050354577"><ele>166.33333333333331</ele><time>2026-04-16T16:46:15.993Z</time></trkpt><trkpt lat="45.59574388501474" lon="10.131645540141651"><ele>166.0</ele><time>2026-04-16T16:46:18.993Z</time></trkpt><trkpt lat="45.59567692829743" lon="10.131580136358492"><ele>165.66666666666666</ele><time>2026-04-16T16:46:21.993Z</time></trkpt><trkpt lat="45.59561919020979" lon="10.131623985778482"><ele>165.33333333333334</ele><time>2026-04-16T16:46:24.993Z</time></trkpt><trkpt lat="45.59555175312474" lon="10.13164174023947"><ele>165.0</ele><time>2026-04-16T16:46:27.993Z</time></trkpt><trkpt lat="45.595476765172165" lon="10.13162735927616"><ele>165.0</ele><time>2026-04-16T16:46:30.993Z</time></trkpt><trkpt lat="45.595402928005065" lon="10.131593527663458"><ele>165.0</ele><time>2026-04-16T16:46:33.993Z</time></trkpt><trkpt lat="45.59531717767481" lon="10.131581066762942"><ele>165.0</ele><time>2026-04-16T16:46:36.993Z</time></trkpt><trkpt lat="45.59523735707337" lon="10.131586637105766"><ele>165.0</ele><time>2026-04-16T16:46:39.993Z</time></trkpt><trkpt lat="45.59515666163069" lon="10.131584842880708"><ele>165.0</ele><time>2026-04-16T16:46:42.993Z</time></trkpt><trkpt lat="45.59507974041675" lon="10.131588146295892"><ele>165.0</ele><time>2026-04-16T16:46:45.993Z</time></trkpt><trkpt lat="45.59501354563983" lon="10.131637370660759"><ele>164.2857142857143</ele><time>2026-04-16T16:46:48.993Z</time></trkpt><trkpt lat="45.59499081566221" lon="10.131729513435243"><ele>163.57142857142858</ele><time>2026-04-16T16:46:51.993Z</time></trkpt><trkpt lat="45.594976010892616" lon="10.131829277488041"><ele>162.85714285714286</ele><time>2026-04-16T16:46:54.993Z</time></trkpt><trkpt lat="45.5949587667833" lon="10.131916405930793"><ele>162.14285714285717</ele><time>2026-04-16T16:46:57.993Z</time></trkpt><trkpt lat="45.59495498759496" lon="10.132011907940452"><ele>161.42857142857144</ele><time>2026-04-16T16:47:00.993Z</time></trkpt><trkpt lat="45.59492321657153" lon="10.132103173134594"><ele>160.71428571428572</ele><time>2026-04-16T16:47:03.993Z</time></trkpt><trkpt lat="45.594898644843866" lon="10.132204320509024"><ele>160.0</ele><time>2026-04-16T16:47:06.993Z</time></trkpt><trkpt lat="45.594880972686724" lon="10.132318648823485"><ele>160.16666666666669</ele><time>2026-04-16T16:47:09.993Z</time></trkpt><trkpt lat="45.594859054689145" lon="10.132436211547155"><ele>160.33333333333334</ele><time>2026-04-16T16:47:12.993Z</time></trkpt><trkpt lat="45.594845545164176" lon="10.132549753456708"><ele>160.5</ele><time>2026-04-16T16:47:15.993Z</time></trkpt><trkpt lat="45.594835009296204" lon="10.132647289422023"><ele>160.66666666666666</ele><time>2026-04-16T16:47:18.993Z</time></trkpt><trkpt lat="45.59483146026634" lon="10.132748175743677"><ele>160.83333333333331</ele><time>2026-04-16T16:47:21.993Z</time></trkpt><trkpt lat="45.59480978797235" lon="10.132845176268075"><ele>161.0</ele><time>2026-04-16T16:47:24.993Z</time></trkpt><trkpt lat="45.594782013762256" lon="10.132947129764016"><ele>161.0</ele><time>2026-04-16T16:47:27.993Z</time></trkpt><trkpt lat="45.594763183919824" lon="10.133053353324732"><ele>161.0</ele><time>2026-04-16T16:47:30.993Z</time></trkpt><trkpt lat="45.59474070502942" lon="10.13314317067501"><ele>161.0</ele><time>2026-04-16T16:47:33.993Z</time></trkpt><trkpt lat="45.594718201971254" lon="10.13324009214442"><ele>161.0</ele><time>2026-04-16T16:47:36.993Z</time></trkpt><trkpt lat="45.59471147037576" lon="10.133343218267298"><ele>161.0</ele><time>2026-04-16T16:47:39.993Z</time></trkpt><trkpt lat="45.59470459355638" lon="10.133439362483221"><ele>161.0</ele><time>2026-04-16T16:47:42.993Z</time></trkpt><trkpt lat="45.5946985993445" lon="10.13354833688554"><ele>161.0</ele><time>2026-04-16T16:47:45.993Z</time></trkpt><trkpt lat="45.594685001404684" lon="10.133649582369662"><ele>161.42857142857142</ele><time>2026-04-16T16:47:48.993Z</time></trkpt><trkpt lat="45.5946670852746" lon="10.133752537024405"><ele>161.85714285714286</ele><time>2026-04-16T16:47:51.993Z</time></trkpt><trkpt lat="45.59465616526391" lon="10.133851729993607"><ele>162.28571428571428</ele><time>2026-04-16T16:47:54.992Z</time></trkpt><trkpt lat="45.59462678718899" lon="10.133939758196558"><ele>162.71428571428572</ele><time>2026-04-16T16:47:57.993Z</time></trkpt><trkpt lat="45.59461131385008" lon="10.134045221596619"><ele>163.14285714285714</ele><time>2026-04-16T16:48:00.993Z</time></trkpt><trkpt lat="45.59459211646444" lon="10.13414393377381"><ele>163.57142857142856</ele><time>2026-04-16T16:48:03.993Z</time></trkpt><trkpt lat="45.594555863630966" lon="10.134237289351212"><ele>164.0</ele><time>2026-04-16T16:48:06.993Z</time></trkpt><trkpt lat="45.59454045889233" lon="10.13434351404232"><ele>164.0</ele><time>2026-04-16T16:48:09.993Z</time></trkpt><trkpt lat="45.59452821825996" lon="10.134452388001412"><ele>164.0</ele><time>2026-04-16T16:48:12.993Z</time></trkpt><trkpt lat="45.59453133532576" lon="10.134544140344774"><ele>164.0</ele><time>2026-04-16T16:48:15.993Z</time></trkpt></trkseg></trk></gpx>